<?xml version="1.0" encoding="UTF-8" standalone="no" ?>
<gpx xmlns="http://www.topografix.com/GPX/1/1" xmlns:xsi="http://www.w3.org/2001/XMLSchema-instance" xsi:schemaLocation="http://www.topografix.com/GPX/1/1 http://www.topografix.com/GPX/1/1/gpx.xsd" version="1.1" creator="VisuGPX - https://www.visugpx.com">
  <metadata>
    <name>Du ludico-technique au départ de Barbizon - 19582 - UtagawaVTT.com</name>
    <desc><![CDATA[
]]></desc>
  </metadata>
  <trk>
    <name><![CDATA[Du ludico-technique au départ de Barbizon - 19582 - UtagawaVTT.com]]></name>
    <trkseg>
      <trkpt lat="48.443" lon="2.61169">
        <ele>83</ele>
        <time>2016-10-13T08:07:05Z</time>
      </trkpt>
      <trkpt lat="48.4429" lon="2.61199">
        <ele>83</ele>
        <time>2016-10-13T08:08:07Z</time>
      </trkpt>
      <trkpt lat="48.44284" lon="2.61196">
        <ele>83</ele>
        <time>2016-10-13T08:08:10Z</time>
      </trkpt>
      <trkpt lat="48.44242" lon="2.60997">
        <ele>83.93</ele>
        <time>2016-10-13T08:08:46Z</time>
      </trkpt>
      <trkpt lat="48.44203" lon="2.60905">
        <ele>83.872162</ele>
        <time>2016-10-13T08:09:03Z</time>
      </trkpt>
      <trkpt lat="48.44166" lon="2.60879">
        <ele>84.021355</ele>
        <time>2016-10-13T08:09:14Z</time>
      </trkpt>
      <trkpt lat="48.44121" lon="2.60868">
        <ele>85.168648</ele>
        <time>2016-10-13T08:09:37Z</time>
      </trkpt>
      <trkpt lat="48.44098" lon="2.60851">
        <ele>85.840469</ele>
        <time>2016-10-13T08:09:43Z</time>
      </trkpt>
      <trkpt lat="48.4408" lon="2.60846">
        <ele>86.418076</ele>
        <time>2016-10-13T08:09:47Z</time>
      </trkpt>
      <trkpt lat="48.4392" lon="2.60872">
        <ele>86.092697</ele>
        <time>2016-10-13T08:10:28Z</time>
      </trkpt>
      <trkpt lat="48.43909" lon="2.60854">
        <ele>86.240997</ele>
        <time>2016-10-13T08:10:35Z</time>
      </trkpt>
      <trkpt lat="48.43894" lon="2.60843">
        <ele>86.500824</ele>
        <time>2016-10-13T08:10:40Z</time>
      </trkpt>
      <trkpt lat="48.43861" lon="2.60796">
        <ele>86.022499</ele>
        <time>2016-10-13T08:10:54Z</time>
      </trkpt>
      <trkpt lat="48.43851" lon="2.60809">
        <ele>86.627502</ele>
        <time>2016-10-13T08:10:59Z</time>
      </trkpt>
      <trkpt lat="48.43832" lon="2.60849">
        <ele>88.9375</ele>
        <time>2016-10-13T08:11:10Z</time>
      </trkpt>
      <trkpt lat="48.43808" lon="2.60855">
        <ele>90.235001</ele>
        <time>2016-10-13T08:11:20Z</time>
      </trkpt>
      <trkpt lat="48.43802" lon="2.60865">
        <ele>90.943748</ele>
        <time>2016-10-13T08:11:24Z</time>
      </trkpt>
      <trkpt lat="48.43784" lon="2.60874">
        <ele>92.153748</ele>
        <time>2016-10-13T08:11:33Z</time>
      </trkpt>
      <trkpt lat="48.43769" lon="2.60867">
        <ele>92.518753</ele>
        <time>2016-10-13T08:11:42Z</time>
      </trkpt>
      <trkpt lat="48.43737" lon="2.60909">
        <ele>96.773201</ele>
        <time>2016-10-13T08:12:04Z</time>
      </trkpt>
      <trkpt lat="48.43736" lon="2.60921">
        <ele>97.651314</ele>
        <time>2016-10-13T08:12:09Z</time>
      </trkpt>
      <trkpt lat="48.43728" lon="2.6093">
        <ele>98.507347</ele>
        <time>2016-10-13T08:12:15Z</time>
      </trkpt>
      <trkpt lat="48.43727" lon="2.60971">
        <ele>101.984978</ele>
        <time>2016-10-13T08:12:35Z</time>
      </trkpt>
      <trkpt lat="48.43715" lon="2.61034">
        <ele>108.30275</ele>
        <time>2016-10-13T08:13:24Z</time>
      </trkpt>
      <trkpt lat="48.43695" lon="2.6106">
        <ele>110.511398</ele>
        <time>2016-10-13T08:14:12Z</time>
      </trkpt>
      <trkpt lat="48.43678" lon="2.61073">
        <ele>114.034073</ele>
        <time>2016-10-13T08:14:32Z</time>
      </trkpt>
      <trkpt lat="48.43671" lon="2.6112">
        <ele>111.746147</ele>
        <time>2016-10-13T08:14:50Z</time>
      </trkpt>
      <trkpt lat="48.4365" lon="2.61116">
        <ele>113.591599</ele>
        <time>2016-10-13T08:15:03Z</time>
      </trkpt>
      <trkpt lat="48.43617" lon="2.6112">
        <ele>122.8368</ele>
        <time>2016-10-13T08:16:00Z</time>
      </trkpt>
      <trkpt lat="48.43602" lon="2.61149">
        <ele>124.317398</ele>
        <time>2016-10-13T08:16:42Z</time>
      </trkpt>
      <trkpt lat="48.43578" lon="2.6114">
        <ele>127.911201</ele>
        <time>2016-10-13T08:17:12Z</time>
      </trkpt>
      <trkpt lat="48.43577" lon="2.61151">
        <ele>128.135193</ele>
        <time>2016-10-13T08:17:43Z</time>
      </trkpt>
      <trkpt lat="48.43582" lon="2.61163">
        <ele>127.653702</ele>
        <time>2016-10-13T08:18:37Z</time>
      </trkpt>
      <trkpt lat="48.43597" lon="2.61169">
        <ele>125.887672</ele>
        <time>2016-10-13T08:18:57Z</time>
      </trkpt>
      <trkpt lat="48.43596" lon="2.61179">
        <ele>126.421425</ele>
        <time>2016-10-13T08:19:13Z</time>
      </trkpt>
      <trkpt lat="48.43584" lon="2.61196">
        <ele>128.255402</ele>
        <time>2016-10-13T08:19:28Z</time>
      </trkpt>
      <trkpt lat="48.43565" lon="2.61205">
        <ele>129.879257</ele>
        <time>2016-10-13T08:20:04Z</time>
      </trkpt>
      <trkpt lat="48.43561" lon="2.61202">
        <ele>130.010757</ele>
        <time>2016-10-13T08:20:08Z</time>
      </trkpt>
      <trkpt lat="48.43553" lon="2.61208">
        <ele>130.015625</ele>
        <time>2016-10-13T08:20:29Z</time>
      </trkpt>
      <trkpt lat="48.43532" lon="2.61195">
        <ele>130.179276</ele>
        <time>2016-10-13T08:21:00Z</time>
      </trkpt>
      <trkpt lat="48.43519" lon="2.61197">
        <ele>130.200531</ele>
        <time>2016-10-13T08:21:20Z</time>
      </trkpt>
      <trkpt lat="48.43512" lon="2.61219">
        <ele>128.649002</ele>
        <time>2016-10-13T08:21:44Z</time>
      </trkpt>
      <trkpt lat="48.43499" lon="2.61242">
        <ele>126.607498</ele>
        <time>2016-10-13T08:22:06Z</time>
      </trkpt>
      <trkpt lat="48.43497" lon="2.61266">
        <ele>125.821999</ele>
        <time>2016-10-13T08:22:31Z</time>
      </trkpt>
      <trkpt lat="48.43501" lon="2.61276">
        <ele>124.984001</ele>
        <time>2016-10-13T08:22:40Z</time>
      </trkpt>
      <trkpt lat="48.435" lon="2.61302">
        <ele>124.163437</ele>
        <time>2016-10-13T08:22:51Z</time>
      </trkpt>
      <trkpt lat="48.4348" lon="2.61336">
        <ele>128.032745</ele>
        <time>2016-10-13T08:23:12Z</time>
      </trkpt>
      <trkpt lat="48.43474" lon="2.61337">
        <ele>129.733704</ele>
        <time>2016-10-13T08:23:17Z</time>
      </trkpt>
      <trkpt lat="48.43473" lon="2.61371">
        <ele>128.505493</ele>
        <time>2016-10-13T08:23:33Z</time>
      </trkpt>
      <trkpt lat="48.4345" lon="2.61426">
        <ele>125.021675</ele>
        <time>2016-10-13T08:24:00Z</time>
      </trkpt>
      <trkpt lat="48.43442" lon="2.61468">
        <ele>125.038429</ele>
        <time>2016-10-13T08:24:22Z</time>
      </trkpt>
      <trkpt lat="48.43435" lon="2.61478">
        <ele>127.067802</ele>
        <time>2016-10-13T08:24:27Z</time>
      </trkpt>
      <trkpt lat="48.43434" lon="2.61496">
        <ele>126.4599</ele>
        <time>2016-10-13T08:24:34Z</time>
      </trkpt>
      <trkpt lat="48.43418" lon="2.61553">
        <ele>124.105309</ele>
        <time>2016-10-13T08:25:05Z</time>
      </trkpt>
      <trkpt lat="48.43398" lon="2.61598">
        <ele>124.395126</ele>
        <time>2016-10-13T08:25:39Z</time>
      </trkpt>
      <trkpt lat="48.43405" lon="2.61616">
        <ele>123.066376</ele>
        <time>2016-10-13T08:26:10Z</time>
      </trkpt>
      <trkpt lat="48.43403" lon="2.61612">
        <ele>123.581871</ele>
        <time>2016-10-13T08:26:20Z</time>
      </trkpt>
      <trkpt lat="48.43406" lon="2.6163">
        <ele>123.129997</ele>
        <time>2016-10-13T08:26:36Z</time>
      </trkpt>
      <trkpt lat="48.43403" lon="2.61639">
        <ele>124.041245</ele>
        <time>2016-10-13T08:26:40Z</time>
      </trkpt>
      <trkpt lat="48.43405" lon="2.61657">
        <ele>123.647499</ele>
        <time>2016-10-13T08:26:45Z</time>
      </trkpt>
      <trkpt lat="48.43389" lon="2.61695">
        <ele>127.624603</ele>
        <time>2016-10-13T08:26:55Z</time>
      </trkpt>
      <trkpt lat="48.43376" lon="2.61712">
        <ele>127.212799</ele>
        <time>2016-10-13T08:27:07Z</time>
      </trkpt>
      <trkpt lat="48.4338" lon="2.61729">
        <ele>126.997375</ele>
        <time>2016-10-13T08:27:16Z</time>
      </trkpt>
      <trkpt lat="48.43368" lon="2.61774">
        <ele>125.770874</ele>
        <time>2016-10-13T08:27:37Z</time>
      </trkpt>
      <trkpt lat="48.43368" lon="2.618">
        <ele>126.284378</ele>
        <time>2016-10-13T08:27:44Z</time>
      </trkpt>
      <trkpt lat="48.43363" lon="2.61822">
        <ele>126.842728</ele>
        <time>2016-10-13T08:27:51Z</time>
      </trkpt>
      <trkpt lat="48.43368" lon="2.61854">
        <ele>125.769249</ele>
        <time>2016-10-13T08:28:04Z</time>
      </trkpt>
      <trkpt lat="48.43373" lon="2.61857">
        <ele>125.213722</ele>
        <time>2016-10-13T08:28:08Z</time>
      </trkpt>
      <trkpt lat="48.43374" lon="2.61869">
        <ele>124.700424</ele>
        <time>2016-10-13T08:28:14Z</time>
      </trkpt>
      <trkpt lat="48.43368" lon="2.61889">
        <ele>124.904625</ele>
        <time>2016-10-13T08:28:21Z</time>
      </trkpt>
      <trkpt lat="48.43362" lon="2.61891">
        <ele>125.576721</ele>
        <time>2016-10-13T08:28:27Z</time>
      </trkpt>
      <trkpt lat="48.43353" lon="2.61936">
        <ele>125.63781</ele>
        <time>2016-10-13T08:28:43Z</time>
      </trkpt>
      <trkpt lat="48.43354" lon="2.61947">
        <ele>125.024246</ele>
        <time>2016-10-13T08:28:48Z</time>
      </trkpt>
      <trkpt lat="48.43349" lon="2.61959">
        <ele>125.944916</ele>
        <time>2016-10-13T08:28:54Z</time>
      </trkpt>
      <trkpt lat="48.43352" lon="2.61982">
        <ele>124.001251</ele>
        <time>2016-10-13T08:29:03Z</time>
      </trkpt>
      <trkpt lat="48.43342" lon="2.62019">
        <ele>124.706848</ele>
        <time>2016-10-13T08:29:16Z</time>
      </trkpt>
      <trkpt lat="48.4334" lon="2.62055">
        <ele>124.602501</ele>
        <time>2016-10-13T08:29:29Z</time>
      </trkpt>
      <trkpt lat="48.4333" lon="2.62079">
        <ele>125.928848</ele>
        <time>2016-10-13T08:29:37Z</time>
      </trkpt>
      <trkpt lat="48.43326" lon="2.62104">
        <ele>125.403938</ele>
        <time>2016-10-13T08:29:44Z</time>
      </trkpt>
      <trkpt lat="48.43319" lon="2.62119">
        <ele>125.738312</ele>
        <time>2016-10-13T08:29:50Z</time>
      </trkpt>
      <trkpt lat="48.43315" lon="2.62147">
        <ele>125.236252</ele>
        <time>2016-10-13T08:29:58Z</time>
      </trkpt>
      <trkpt lat="48.43301" lon="2.62178">
        <ele>127.578026</ele>
        <time>2016-10-13T08:30:17Z</time>
      </trkpt>
      <trkpt lat="48.43304" lon="2.62255">
        <ele>124.218399</ele>
        <time>2016-10-13T08:30:39Z</time>
      </trkpt>
      <trkpt lat="48.43285" lon="2.62288">
        <ele>124.84375</ele>
        <time>2016-10-13T08:30:56Z</time>
      </trkpt>
      <trkpt lat="48.43284" lon="2.62314">
        <ele>121.501404</ele>
        <time>2016-10-13T08:31:04Z</time>
      </trkpt>
      <trkpt lat="48.43274" lon="2.62346">
        <ele>117.026375</ele>
        <time>2016-10-13T08:31:12Z</time>
      </trkpt>
      <trkpt lat="48.43253" lon="2.62377">
        <ele>115.863724</ele>
        <time>2016-10-13T08:31:25Z</time>
      </trkpt>
      <trkpt lat="48.43248" lon="2.62404">
        <ele>116.514275</ele>
        <time>2016-10-13T08:31:31Z</time>
      </trkpt>
      <trkpt lat="48.43254" lon="2.62466">
        <ele>117.504692</ele>
        <time>2016-10-13T08:31:49Z</time>
      </trkpt>
      <trkpt lat="48.43276" lon="2.62496">
        <ele>117.674934</ele>
        <time>2016-10-13T08:32:16Z</time>
      </trkpt>
      <trkpt lat="48.43277" lon="2.62525">
        <ele>117.989723</ele>
        <time>2016-10-13T08:33:03Z</time>
      </trkpt>
      <trkpt lat="48.43288" lon="2.6254">
        <ele>116.692001</ele>
        <time>2016-10-13T08:33:11Z</time>
      </trkpt>
      <trkpt lat="48.43307" lon="2.6255">
        <ele>111.761864</ele>
        <time>2016-10-13T08:33:21Z</time>
      </trkpt>
      <trkpt lat="48.43324" lon="2.62576">
        <ele>105.394691</ele>
        <time>2016-10-13T08:33:30Z</time>
      </trkpt>
      <trkpt lat="48.4333" lon="2.62662">
        <ele>98.682297</ele>
        <time>2016-10-13T08:33:47Z</time>
      </trkpt>
      <trkpt lat="48.4334" lon="2.6271">
        <ele>95.536247</ele>
        <time>2016-10-13T08:33:58Z</time>
      </trkpt>
      <trkpt lat="48.43351" lon="2.62724">
        <ele>94.567497</ele>
        <time>2016-10-13T08:34:03Z</time>
      </trkpt>
      <trkpt lat="48.43358" lon="2.62775">
        <ele>94.059998</ele>
        <time>2016-10-13T08:34:14Z</time>
      </trkpt>
      <trkpt lat="48.43355" lon="2.62781">
        <ele>94.635002</ele>
        <time>2016-10-13T08:34:16Z</time>
      </trkpt>
      <trkpt lat="48.43331" lon="2.62789">
        <ele>96.594147</ele>
        <time>2016-10-13T08:34:33Z</time>
      </trkpt>
      <trkpt lat="48.43328" lon="2.62804">
        <ele>97.512802</ele>
        <time>2016-10-13T08:34:40Z</time>
      </trkpt>
      <trkpt lat="48.4328" lon="2.62842">
        <ele>100.3825</ele>
        <time>2016-10-13T08:35:17Z</time>
      </trkpt>
      <trkpt lat="48.43273" lon="2.62863">
        <ele>101.909996</ele>
        <time>2016-10-13T08:35:25Z</time>
      </trkpt>
      <trkpt lat="48.43282" lon="2.62889">
        <ele>102.291252</ele>
        <time>2016-10-13T08:35:38Z</time>
      </trkpt>
      <trkpt lat="48.43274" lon="2.6294">
        <ele>104.560249</ele>
        <time>2016-10-13T08:35:55Z</time>
      </trkpt>
      <trkpt lat="48.43262" lon="2.62979">
        <ele>105.532196</ele>
        <time>2016-10-13T08:36:09Z</time>
      </trkpt>
      <trkpt lat="48.43246" lon="2.63062">
        <ele>106.092499</ele>
        <time>2016-10-13T08:36:38Z</time>
      </trkpt>
      <trkpt lat="48.4322" lon="2.63115">
        <ele>111.682938</ele>
        <time>2016-10-13T08:37:00Z</time>
      </trkpt>
      <trkpt lat="48.43197" lon="2.63139">
        <ele>114.369377</ele>
        <time>2016-10-13T08:37:16Z</time>
      </trkpt>
      <trkpt lat="48.43192" lon="2.63164">
        <ele>116.597</ele>
        <time>2016-10-13T08:37:27Z</time>
      </trkpt>
      <trkpt lat="48.43248" lon="2.63134">
        <ele>114.058746</ele>
        <time>2016-10-13T08:37:56Z</time>
      </trkpt>
      <trkpt lat="48.43282" lon="2.63126">
        <ele>112.711098</ele>
        <time>2016-10-13T08:38:09Z</time>
      </trkpt>
      <trkpt lat="48.43321" lon="2.63145">
        <ele>110.972748</ele>
        <time>2016-10-13T08:38:19Z</time>
      </trkpt>
      <trkpt lat="48.4334" lon="2.63134">
        <ele>109.823898</ele>
        <time>2016-10-13T08:38:27Z</time>
      </trkpt>
      <trkpt lat="48.4336" lon="2.63099">
        <ele>109.314003</ele>
        <time>2016-10-13T08:38:33Z</time>
      </trkpt>
      <trkpt lat="48.4343" lon="2.63004">
        <ele>101.429199</ele>
        <time>2016-10-13T08:38:52Z</time>
      </trkpt>
      <trkpt lat="48.43472" lon="2.62969">
        <ele>96.959</ele>
        <time>2016-10-13T08:39:05Z</time>
      </trkpt>
      <trkpt lat="48.4347" lon="2.62995">
        <ele>99.311127</ele>
        <time>2016-10-13T08:39:16Z</time>
      </trkpt>
      <trkpt lat="48.43474" lon="2.63013">
        <ele>100.618637</ele>
        <time>2016-10-13T08:39:24Z</time>
      </trkpt>
      <trkpt lat="48.43511" lon="2.63051">
        <ele>99.513748</ele>
        <time>2016-10-13T08:39:42Z</time>
      </trkpt>
      <trkpt lat="48.43519" lon="2.63075">
        <ele>100.149124</ele>
        <time>2016-10-13T08:39:45Z</time>
      </trkpt>
      <trkpt lat="48.43505" lon="2.63177">
        <ele>100.440315</ele>
        <time>2016-10-13T08:40:00Z</time>
      </trkpt>
      <trkpt lat="48.4346" lon="2.63323">
        <ele>102.050003</ele>
        <time>2016-10-13T08:40:26Z</time>
      </trkpt>
      <trkpt lat="48.43446" lon="2.63345">
        <ele>102.947411</ele>
        <time>2016-10-13T08:40:32Z</time>
      </trkpt>
      <trkpt lat="48.43443" lon="2.6337">
        <ele>103.716347</ele>
        <time>2016-10-13T08:40:39Z</time>
      </trkpt>
      <trkpt lat="48.43389" lon="2.63408">
        <ele>105.386002</ele>
        <time>2016-10-13T08:41:02Z</time>
      </trkpt>
      <trkpt lat="48.43346" lon="2.63477">
        <ele>109.172997</ele>
        <time>2016-10-13T08:41:26Z</time>
      </trkpt>
      <trkpt lat="48.43334" lon="2.63487">
        <ele>109.677719</ele>
        <time>2016-10-13T08:41:32Z</time>
      </trkpt>
      <trkpt lat="48.43317" lon="2.63483">
        <ele>112.627502</ele>
        <time>2016-10-13T08:41:45Z</time>
      </trkpt>
      <trkpt lat="48.43304" lon="2.63488">
        <ele>114.981247</ele>
        <time>2016-10-13T08:41:53Z</time>
      </trkpt>
      <trkpt lat="48.43253" lon="2.63478">
        <ele>123.570198</ele>
        <time>2016-10-13T08:42:28Z</time>
      </trkpt>
      <trkpt lat="48.43243" lon="2.63463">
        <ele>124.787498</ele>
        <time>2016-10-13T08:42:40Z</time>
      </trkpt>
      <trkpt lat="48.43232" lon="2.63471">
        <ele>126.154999</ele>
        <time>2016-10-13T08:42:48Z</time>
      </trkpt>
      <trkpt lat="48.43209" lon="2.63458">
        <ele>128.339996</ele>
        <time>2016-10-13T08:43:38Z</time>
      </trkpt>
      <trkpt lat="48.43208" lon="2.63432">
        <ele>128.691452</ele>
        <time>2016-10-13T08:44:10Z</time>
      </trkpt>
      <trkpt lat="48.43212" lon="2.63428">
        <ele>128.667435</ele>
        <time>2016-10-13T08:44:46Z</time>
      </trkpt>
      <trkpt lat="48.43212" lon="2.63418">
        <ele>129.74736</ele>
        <time>2016-10-13T08:45:14Z</time>
      </trkpt>
      <trkpt lat="48.43197" lon="2.63406">
        <ele>131.546371</ele>
        <time>2016-10-13T08:45:25Z</time>
      </trkpt>
      <trkpt lat="48.43169" lon="2.63395">
        <ele>132.110962</ele>
        <time>2016-10-13T08:45:38Z</time>
      </trkpt>
      <trkpt lat="48.43142" lon="2.63446">
        <ele>132.264999</ele>
        <time>2016-10-13T08:45:59Z</time>
      </trkpt>
      <trkpt lat="48.43138" lon="2.6347">
        <ele>132.360001</ele>
        <time>2016-10-13T08:46:06Z</time>
      </trkpt>
      <trkpt lat="48.43145" lon="2.63503">
        <ele>132.195007</ele>
        <time>2016-10-13T08:46:15Z</time>
      </trkpt>
      <trkpt lat="48.43139" lon="2.63554">
        <ele>131.851654</ele>
        <time>2016-10-13T08:46:28Z</time>
      </trkpt>
      <trkpt lat="48.431" lon="2.63611">
        <ele>131.564499</ele>
        <time>2016-10-13T08:46:48Z</time>
      </trkpt>
      <trkpt lat="48.43099" lon="2.63641">
        <ele>130.432907</ele>
        <time>2016-10-13T08:47:02Z</time>
      </trkpt>
      <trkpt lat="48.43093" lon="2.63666">
        <ele>130.189545</ele>
        <time>2016-10-13T08:47:11Z</time>
      </trkpt>
      <trkpt lat="48.43092" lon="2.63707">
        <ele>129.455475</ele>
        <time>2016-10-13T08:47:23Z</time>
      </trkpt>
      <trkpt lat="48.43098" lon="2.63734">
        <ele>129.804794</ele>
        <time>2016-10-13T08:47:30Z</time>
      </trkpt>
      <trkpt lat="48.43106" lon="2.63742">
        <ele>129.569519</ele>
        <time>2016-10-13T08:47:35Z</time>
      </trkpt>
      <trkpt lat="48.43112" lon="2.63762">
        <ele>129.380722</ele>
        <time>2016-10-13T08:47:45Z</time>
      </trkpt>
      <trkpt lat="48.43113" lon="2.63796">
        <ele>127.067093</ele>
        <time>2016-10-13T08:47:59Z</time>
      </trkpt>
      <trkpt lat="48.43108" lon="2.63801">
        <ele>127.348602</ele>
        <time>2016-10-13T08:48:02Z</time>
      </trkpt>
      <trkpt lat="48.4309" lon="2.63799">
        <ele>129.615494</ele>
        <time>2016-10-13T08:48:13Z</time>
      </trkpt>
      <trkpt lat="48.43076" lon="2.63821">
        <ele>129.507004</ele>
        <time>2016-10-13T08:48:51Z</time>
      </trkpt>
      <trkpt lat="48.4306" lon="2.63823">
        <ele>131.702805</ele>
        <time>2016-10-13T08:49:02Z</time>
      </trkpt>
      <trkpt lat="48.43054" lon="2.63835">
        <ele>131.635269</ele>
        <time>2016-10-13T08:49:07Z</time>
      </trkpt>
      <trkpt lat="48.43039" lon="2.63844">
        <ele>132.079422</ele>
        <time>2016-10-13T08:49:23Z</time>
      </trkpt>
      <trkpt lat="48.43035" lon="2.63868">
        <ele>132.080093</ele>
        <time>2016-10-13T08:49:34Z</time>
      </trkpt>
      <trkpt lat="48.4301" lon="2.63884">
        <ele>133</ele>
        <time>2016-10-13T08:49:59Z</time>
      </trkpt>
      <trkpt lat="48.43" lon="2.63878">
        <ele>133</ele>
        <time>2016-10-13T08:50:09Z</time>
      </trkpt>
      <trkpt lat="48.42972" lon="2.63908">
        <ele>133</ele>
        <time>2016-10-13T08:50:32Z</time>
      </trkpt>
      <trkpt lat="48.42972" lon="2.63959">
        <ele>132.99292</ele>
        <time>2016-10-13T08:50:46Z</time>
      </trkpt>
      <trkpt lat="48.42949" lon="2.64079">
        <ele>130.496002</ele>
        <time>2016-10-13T08:51:11Z</time>
      </trkpt>
      <trkpt lat="48.42922" lon="2.64135">
        <ele>128.846909</ele>
        <time>2016-10-13T08:51:21Z</time>
      </trkpt>
      <trkpt lat="48.42894" lon="2.64314">
        <ele>123.150124</ele>
        <time>2016-10-13T08:51:48Z</time>
      </trkpt>
      <trkpt lat="48.42884" lon="2.64509">
        <ele>111.801247</ele>
        <time>2016-10-13T08:52:19Z</time>
      </trkpt>
      <trkpt lat="48.42902" lon="2.64571">
        <ele>107.831253</ele>
        <time>2016-10-13T08:52:30Z</time>
      </trkpt>
      <trkpt lat="48.42924" lon="2.64607">
        <ele>106.357246</ele>
        <time>2016-10-13T08:52:46Z</time>
      </trkpt>
      <trkpt lat="48.42941" lon="2.6461">
        <ele>105.695801</ele>
        <time>2016-10-13T08:52:51Z</time>
      </trkpt>
      <trkpt lat="48.42989" lon="2.64647">
        <ele>101.705978</ele>
        <time>2016-10-13T08:53:05Z</time>
      </trkpt>
      <trkpt lat="48.42999" lon="2.64647">
        <ele>100.871078</ele>
        <time>2016-10-13T08:53:09Z</time>
      </trkpt>
      <trkpt lat="48.43038" lon="2.64696">
        <ele>100.388947</ele>
        <time>2016-10-13T08:53:23Z</time>
      </trkpt>
      <trkpt lat="48.43069" lon="2.6476">
        <ele>98.619949</ele>
        <time>2016-10-13T08:53:36Z</time>
      </trkpt>
      <trkpt lat="48.43086" lon="2.64817">
        <ele>95.5849</ele>
        <time>2016-10-13T08:53:47Z</time>
      </trkpt>
      <trkpt lat="48.43096" lon="2.64822">
        <ele>95.187935</ele>
        <time>2016-10-13T08:53:51Z</time>
      </trkpt>
      <trkpt lat="48.43109" lon="2.64818">
        <ele>95.26178</ele>
        <time>2016-10-13T08:53:57Z</time>
      </trkpt>
      <trkpt lat="48.43161" lon="2.64776">
        <ele>95.743202</ele>
        <time>2016-10-13T08:54:15Z</time>
      </trkpt>
      <trkpt lat="48.43218" lon="2.64681">
        <ele>94.254997</ele>
        <time>2016-10-13T08:54:46Z</time>
      </trkpt>
      <trkpt lat="48.43232" lon="2.64669">
        <ele>93.48745</ele>
        <time>2016-10-13T08:54:51Z</time>
      </trkpt>
      <trkpt lat="48.43241" lon="2.64578">
        <ele>93</ele>
        <time>2016-10-13T08:55:05Z</time>
      </trkpt>
      <trkpt lat="48.43279" lon="2.64504">
        <ele>91.868103</ele>
        <time>2016-10-13T08:55:21Z</time>
      </trkpt>
      <trkpt lat="48.4337" lon="2.64432">
        <ele>90.042091</ele>
        <time>2016-10-13T08:55:46Z</time>
      </trkpt>
      <trkpt lat="48.43389" lon="2.64386">
        <ele>91.43</ele>
        <time>2016-10-13T08:55:58Z</time>
      </trkpt>
      <trkpt lat="48.43394" lon="2.64346">
        <ele>92.551247</ele>
        <time>2016-10-13T08:56:05Z</time>
      </trkpt>
      <trkpt lat="48.43421" lon="2.64294">
        <ele>95.247498</ele>
        <time>2016-10-13T08:56:20Z</time>
      </trkpt>
      <trkpt lat="48.43431" lon="2.64219">
        <ele>95.561462</ele>
        <time>2016-10-13T08:56:37Z</time>
      </trkpt>
      <trkpt lat="48.43431" lon="2.64161">
        <ele>96.022812</ele>
        <time>2016-10-13T08:56:53Z</time>
      </trkpt>
      <trkpt lat="48.43492" lon="2.64151">
        <ele>100.7575</ele>
        <time>2016-10-13T08:57:27Z</time>
      </trkpt>
      <trkpt lat="48.43514" lon="2.64156">
        <ele>102.772781</ele>
        <time>2016-10-13T08:57:37Z</time>
      </trkpt>
      <trkpt lat="48.43519" lon="2.64164">
        <ele>103.320747</ele>
        <time>2016-10-13T08:57:40Z</time>
      </trkpt>
      <trkpt lat="48.43541" lon="2.64242">
        <ele>103.93</ele>
        <time>2016-10-13T08:58:02Z</time>
      </trkpt>
      <trkpt lat="48.43552" lon="2.64266">
        <ele>103.280403</ele>
        <time>2016-10-13T08:58:10Z</time>
      </trkpt>
      <trkpt lat="48.43561" lon="2.64275">
        <ele>102.951866</ele>
        <time>2016-10-13T08:58:15Z</time>
      </trkpt>
      <trkpt lat="48.43569" lon="2.64274">
        <ele>102.347786</ele>
        <time>2016-10-13T08:58:20Z</time>
      </trkpt>
      <trkpt lat="48.43579" lon="2.64284">
        <ele>101.75444</ele>
        <time>2016-10-13T08:58:25Z</time>
      </trkpt>
      <trkpt lat="48.43624" lon="2.64402">
        <ele>92.778008</ele>
        <time>2016-10-13T08:58:56Z</time>
      </trkpt>
      <trkpt lat="48.43615" lon="2.64433">
        <ele>93.175957</ele>
        <time>2016-10-13T08:59:06Z</time>
      </trkpt>
      <trkpt lat="48.43604" lon="2.64447">
        <ele>92.447334</ele>
        <time>2016-10-13T08:59:12Z</time>
      </trkpt>
      <trkpt lat="48.43567" lon="2.64545">
        <ele>92.423935</ele>
        <time>2016-10-13T08:59:37Z</time>
      </trkpt>
      <trkpt lat="48.43552" lon="2.64572">
        <ele>92.059059</ele>
        <time>2016-10-13T08:59:44Z</time>
      </trkpt>
      <trkpt lat="48.43501" lon="2.6461">
        <ele>92.524345</ele>
        <time>2016-10-13T09:00:01Z</time>
      </trkpt>
      <trkpt lat="48.43372" lon="2.64671">
        <ele>91.217499</ele>
        <time>2016-10-13T09:00:36Z</time>
      </trkpt>
      <trkpt lat="48.43292" lon="2.64732">
        <ele>92.122498</ele>
        <time>2016-10-13T09:00:59Z</time>
      </trkpt>
      <trkpt lat="48.43324" lon="2.64956">
        <ele>94.932343</ele>
        <time>2016-10-13T09:01:38Z</time>
      </trkpt>
      <trkpt lat="48.43289" lon="2.651">
        <ele>108.127724</ele>
        <time>2016-10-13T09:02:28Z</time>
      </trkpt>
      <trkpt lat="48.4328" lon="2.65107">
        <ele>109.282211</ele>
        <time>2016-10-13T09:02:42Z</time>
      </trkpt>
      <trkpt lat="48.43254" lon="2.65151">
        <ele>115.211601</ele>
        <time>2016-10-13T09:04:20Z</time>
      </trkpt>
      <trkpt lat="48.43242" lon="2.65196">
        <ele>116.407501</ele>
        <time>2016-10-13T09:04:38Z</time>
      </trkpt>
      <trkpt lat="48.43223" lon="2.65226">
        <ele>121.045937</ele>
        <time>2016-10-13T09:04:57Z</time>
      </trkpt>
      <trkpt lat="48.43209" lon="2.65335">
        <ele>128.144257</ele>
        <time>2016-10-13T09:05:41Z</time>
      </trkpt>
      <trkpt lat="48.43212" lon="2.65351">
        <ele>129.015427</ele>
        <time>2016-10-13T09:05:47Z</time>
      </trkpt>
      <trkpt lat="48.43205" lon="2.65385">
        <ele>130.334763</ele>
        <time>2016-10-13T09:06:28Z</time>
      </trkpt>
      <trkpt lat="48.4321" lon="2.65404">
        <ele>131.217499</ele>
        <time>2016-10-13T09:06:52Z</time>
      </trkpt>
      <trkpt lat="48.43206" lon="2.65418">
        <ele>131.877502</ele>
        <time>2016-10-13T09:07:29Z</time>
      </trkpt>
      <trkpt lat="48.43212" lon="2.65433">
        <ele>132.533752</ele>
        <time>2016-10-13T09:07:49Z</time>
      </trkpt>
      <trkpt lat="48.43256" lon="2.6547">
        <ele>134.082764</ele>
        <time>2016-10-13T09:08:20Z</time>
      </trkpt>
      <trkpt lat="48.43253" lon="2.65545">
        <ele>135.669998</ele>
        <time>2016-10-13T09:08:49Z</time>
      </trkpt>
      <trkpt lat="48.43247" lon="2.65585">
        <ele>135.794998</ele>
        <time>2016-10-13T09:08:59Z</time>
      </trkpt>
      <trkpt lat="48.43227" lon="2.65628">
        <ele>135.856003</ele>
        <time>2016-10-13T09:09:10Z</time>
      </trkpt>
      <trkpt lat="48.43228" lon="2.6565">
        <ele>135.936172</ele>
        <time>2016-10-13T09:09:18Z</time>
      </trkpt>
      <trkpt lat="48.43216" lon="2.65665">
        <ele>135.969681</ele>
        <time>2016-10-13T09:09:24Z</time>
      </trkpt>
      <trkpt lat="48.43204" lon="2.65707">
        <ele>136</ele>
        <time>2016-10-13T09:09:35Z</time>
      </trkpt>
      <trkpt lat="48.43185" lon="2.65688">
        <ele>135.649994</ele>
        <time>2016-10-13T09:09:44Z</time>
      </trkpt>
      <trkpt lat="48.43157" lon="2.65679">
        <ele>134.419998</ele>
        <time>2016-10-13T09:09:55Z</time>
      </trkpt>
      <trkpt lat="48.43139" lon="2.65647">
        <ele>133.117996</ele>
        <time>2016-10-13T09:10:03Z</time>
      </trkpt>
      <trkpt lat="48.43139" lon="2.65617">
        <ele>132.121445</ele>
        <time>2016-10-13T09:10:08Z</time>
      </trkpt>
      <trkpt lat="48.43128" lon="2.6557">
        <ele>129.590881</ele>
        <time>2016-10-13T09:10:22Z</time>
      </trkpt>
      <trkpt lat="48.4309" lon="2.6553">
        <ele>123.265839</ele>
        <time>2016-10-13T09:10:35Z</time>
      </trkpt>
      <trkpt lat="48.43071" lon="2.65528">
        <ele>121.842789</ele>
        <time>2016-10-13T09:10:42Z</time>
      </trkpt>
      <trkpt lat="48.43052" lon="2.65498">
        <ele>119.119766</ele>
        <time>2016-10-13T09:11:00Z</time>
      </trkpt>
      <trkpt lat="48.43049" lon="2.65485">
        <ele>118.214127</ele>
        <time>2016-10-13T09:11:04Z</time>
      </trkpt>
      <trkpt lat="48.43034" lon="2.65463">
        <ele>115.091728</ele>
        <time>2016-10-13T09:12:13Z</time>
      </trkpt>
      <trkpt lat="48.4303" lon="2.65509">
        <ele>117.093246</ele>
        <time>2016-10-13T09:13:17Z</time>
      </trkpt>
      <trkpt lat="48.43025" lon="2.65526">
        <ele>117.601563</ele>
        <time>2016-10-13T09:13:25Z</time>
      </trkpt>
      <trkpt lat="48.43027" lon="2.65632">
        <ele>124.51223</ele>
        <time>2016-10-13T09:14:03Z</time>
      </trkpt>
      <trkpt lat="48.42994" lon="2.65711">
        <ele>128.781631</ele>
        <time>2016-10-13T09:14:38Z</time>
      </trkpt>
      <trkpt lat="48.42974" lon="2.65798">
        <ele>130.931244</ele>
        <time>2016-10-13T09:15:11Z</time>
      </trkpt>
      <trkpt lat="48.42975" lon="2.65847">
        <ele>131.653748</ele>
        <time>2016-10-13T09:15:26Z</time>
      </trkpt>
      <trkpt lat="48.42971" lon="2.65872">
        <ele>132.028351</ele>
        <time>2016-10-13T09:15:37Z</time>
      </trkpt>
      <trkpt lat="48.42971" lon="2.65866">
        <ele>131.941254</ele>
        <time>2016-10-13T09:15:40Z</time>
      </trkpt>
      <trkpt lat="48.42994" lon="2.65842">
        <ele>131.582504</ele>
        <time>2016-10-13T09:15:52Z</time>
      </trkpt>
      <trkpt lat="48.43089" lon="2.65892">
        <ele>134.11113</ele>
        <time>2016-10-13T09:16:19Z</time>
      </trkpt>
      <trkpt lat="48.43111" lon="2.65921">
        <ele>134.794724</ele>
        <time>2016-10-13T09:16:25Z</time>
      </trkpt>
      <trkpt lat="48.43104" lon="2.65959">
        <ele>135.303757</ele>
        <time>2016-10-13T09:16:33Z</time>
      </trkpt>
      <trkpt lat="48.4306" lon="2.66069">
        <ele>135.997498</ele>
        <time>2016-10-13T09:16:58Z</time>
      </trkpt>
      <trkpt lat="48.43076" lon="2.66115">
        <ele>137.047501</ele>
        <time>2016-10-13T09:17:13Z</time>
      </trkpt>
      <trkpt lat="48.43075" lon="2.6614">
        <ele>137.391251</ele>
        <time>2016-10-13T09:17:19Z</time>
      </trkpt>
      <trkpt lat="48.43065" lon="2.66166">
        <ele>137.175003</ele>
        <time>2016-10-13T09:17:33Z</time>
      </trkpt>
      <trkpt lat="48.43036" lon="2.66184">
        <ele>137</ele>
        <time>2016-10-13T09:17:45Z</time>
      </trkpt>
      <trkpt lat="48.43033" lon="2.66234">
        <ele>137.178009</ele>
        <time>2016-10-13T09:17:55Z</time>
      </trkpt>
      <trkpt lat="48.43044" lon="2.6634">
        <ele>138.693756</ele>
        <time>2016-10-13T09:18:15Z</time>
      </trkpt>
      <trkpt lat="48.43057" lon="2.66592">
        <ele>135.662506</ele>
        <time>2016-10-13T09:18:56Z</time>
      </trkpt>
      <trkpt lat="48.4303" lon="2.66642">
        <ele>132.617096</ele>
        <time>2016-10-13T09:19:08Z</time>
      </trkpt>
      <trkpt lat="48.43009" lon="2.6667">
        <ele>132.592117</ele>
        <time>2016-10-13T09:19:15Z</time>
      </trkpt>
      <trkpt lat="48.42997" lon="2.66694">
        <ele>132.800842</ele>
        <time>2016-10-13T09:19:21Z</time>
      </trkpt>
      <trkpt lat="48.42997" lon="2.66727">
        <ele>132.704163</ele>
        <time>2016-10-13T09:19:28Z</time>
      </trkpt>
      <trkpt lat="48.43005" lon="2.66757">
        <ele>131.300629</ele>
        <time>2016-10-13T09:19:45Z</time>
      </trkpt>
      <trkpt lat="48.43" lon="2.66762">
        <ele>130.914307</ele>
        <time>2016-10-13T09:19:50Z</time>
      </trkpt>
      <trkpt lat="48.42994" lon="2.66791">
        <ele>128.202499</ele>
        <time>2016-10-13T09:20:00Z</time>
      </trkpt>
      <trkpt lat="48.42997" lon="2.6683">
        <ele>122.850403</ele>
        <time>2016-10-13T09:20:26Z</time>
      </trkpt>
      <trkpt lat="48.42969" lon="2.66863">
        <ele>119.213676</ele>
        <time>2016-10-13T09:21:21Z</time>
      </trkpt>
      <trkpt lat="48.42963" lon="2.66884">
        <ele>116.597061</ele>
        <time>2016-10-13T09:21:30Z</time>
      </trkpt>
      <trkpt lat="48.42967" lon="2.66911">
        <ele>113.401398</ele>
        <time>2016-10-13T09:21:41Z</time>
      </trkpt>
      <trkpt lat="48.42981" lon="2.66954">
        <ele>107.749779</ele>
        <time>2016-10-13T09:21:54Z</time>
      </trkpt>
      <trkpt lat="48.4299" lon="2.66962">
        <ele>106.281601</ele>
        <time>2016-10-13T09:21:58Z</time>
      </trkpt>
      <trkpt lat="48.43007" lon="2.67013">
        <ele>100.779472</ele>
        <time>2016-10-13T09:22:13Z</time>
      </trkpt>
      <trkpt lat="48.43008" lon="2.67029">
        <ele>99.47924</ele>
        <time>2016-10-13T09:22:19Z</time>
      </trkpt>
      <trkpt lat="48.43056" lon="2.67086">
        <ele>91.959999</ele>
        <time>2016-10-13T09:22:38Z</time>
      </trkpt>
      <trkpt lat="48.43062" lon="2.67103">
        <ele>91.573753</ele>
        <time>2016-10-13T09:22:43Z</time>
      </trkpt>
      <trkpt lat="48.43033" lon="2.67194">
        <ele>91.65274</ele>
        <time>2016-10-13T09:23:04Z</time>
      </trkpt>
      <trkpt lat="48.43037" lon="2.67219">
        <ele>91.384338</ele>
        <time>2016-10-13T09:23:10Z</time>
      </trkpt>
      <trkpt lat="48.43129" lon="2.67387">
        <ele>89.751564</ele>
        <time>2016-10-13T09:23:47Z</time>
      </trkpt>
      <trkpt lat="48.43174" lon="2.67487">
        <ele>89.5056</ele>
        <time>2016-10-13T09:24:08Z</time>
      </trkpt>
      <trkpt lat="48.43179" lon="2.67525">
        <ele>90.031342</ele>
        <time>2016-10-13T09:24:14Z</time>
      </trkpt>
      <trkpt lat="48.43196" lon="2.67562">
        <ele>89.606247</ele>
        <time>2016-10-13T09:24:29Z</time>
      </trkpt>
      <trkpt lat="48.432" lon="2.67596">
        <ele>88.912498</ele>
        <time>2016-10-13T09:29:08Z</time>
      </trkpt>
      <trkpt lat="48.43189" lon="2.67646">
        <ele>88.665604</ele>
        <time>2016-10-13T09:29:19Z</time>
      </trkpt>
      <trkpt lat="48.43184" lon="2.67754">
        <ele>88</ele>
        <time>2016-10-13T09:29:35Z</time>
      </trkpt>
      <trkpt lat="48.43175" lon="2.67819">
        <ele>88.460625</ele>
        <time>2016-10-13T09:29:48Z</time>
      </trkpt>
      <trkpt lat="48.43175" lon="2.67853">
        <ele>88.550003</ele>
        <time>2016-10-13T09:29:55Z</time>
      </trkpt>
      <trkpt lat="48.43169" lon="2.67878">
        <ele>88.800003</ele>
        <time>2016-10-13T09:30:00Z</time>
      </trkpt>
      <trkpt lat="48.43142" lon="2.67929">
        <ele>89.516251</ele>
        <time>2016-10-13T09:30:13Z</time>
      </trkpt>
      <trkpt lat="48.43179" lon="2.67976">
        <ele>87.753998</ele>
        <time>2016-10-13T09:30:28Z</time>
      </trkpt>
      <trkpt lat="48.43186" lon="2.68">
        <ele>88.067841</ele>
        <time>2016-10-13T09:30:33Z</time>
      </trkpt>
      <trkpt lat="48.43246" lon="2.68121">
        <ele>87.756691</ele>
        <time>2016-10-13T09:30:56Z</time>
      </trkpt>
      <trkpt lat="48.4326" lon="2.68163">
        <ele>87.32135</ele>
        <time>2016-10-13T09:31:03Z</time>
      </trkpt>
      <trkpt lat="48.4326" lon="2.68202">
        <ele>87.246048</ele>
        <time>2016-10-13T09:31:10Z</time>
      </trkpt>
      <trkpt lat="48.43248" lon="2.68273">
        <ele>87.482246</ele>
        <time>2016-10-13T09:31:21Z</time>
      </trkpt>
      <trkpt lat="48.43228" lon="2.68362">
        <ele>87.319</ele>
        <time>2016-10-13T09:31:35Z</time>
      </trkpt>
      <trkpt lat="48.43191" lon="2.68404">
        <ele>89.218033</ele>
        <time>2016-10-13T09:31:50Z</time>
      </trkpt>
      <trkpt lat="48.43174" lon="2.68435">
        <ele>92.071251</ele>
        <time>2016-10-13T09:32:04Z</time>
      </trkpt>
      <trkpt lat="48.43176" lon="2.68448">
        <ele>91.098289</ele>
        <time>2016-10-13T09:32:08Z</time>
      </trkpt>
      <trkpt lat="48.43154" lon="2.6853">
        <ele>93.244003</ele>
        <time>2016-10-13T09:32:28Z</time>
      </trkpt>
      <trkpt lat="48.4313" lon="2.68584">
        <ele>94.403</ele>
        <time>2016-10-13T09:32:50Z</time>
      </trkpt>
      <trkpt lat="48.43118" lon="2.68589">
        <ele>96.087685</ele>
        <time>2016-10-13T09:32:59Z</time>
      </trkpt>
      <trkpt lat="48.43099" lon="2.68648">
        <ele>94.36277</ele>
        <time>2016-10-13T09:33:12Z</time>
      </trkpt>
      <trkpt lat="48.4308" lon="2.68656">
        <ele>95.035889</ele>
        <time>2016-10-13T09:33:22Z</time>
      </trkpt>
      <trkpt lat="48.43009" lon="2.68661">
        <ele>100.504059</ele>
        <time>2016-10-13T09:33:58Z</time>
      </trkpt>
      <trkpt lat="48.42905" lon="2.68678">
        <ele>113.858322</ele>
        <time>2016-10-13T09:35:15Z</time>
      </trkpt>
      <trkpt lat="48.4288" lon="2.6867">
        <ele>117.85025</ele>
        <time>2016-10-13T09:35:42Z</time>
      </trkpt>
      <trkpt lat="48.42863" lon="2.68646">
        <ele>122.142403</ele>
        <time>2016-10-13T09:36:04Z</time>
      </trkpt>
      <trkpt lat="48.42851" lon="2.68639">
        <ele>125.255699</ele>
        <time>2016-10-13T09:36:17Z</time>
      </trkpt>
      <trkpt lat="48.42834" lon="2.6864">
        <ele>128.867996</ele>
        <time>2016-10-13T09:36:45Z</time>
      </trkpt>
      <trkpt lat="48.42818" lon="2.68627">
        <ele>132.352249</ele>
        <time>2016-10-13T09:37:08Z</time>
      </trkpt>
      <trkpt lat="48.42764" lon="2.68629">
        <ele>137.792236</ele>
        <time>2016-10-13T09:37:53Z</time>
      </trkpt>
      <trkpt lat="48.42675" lon="2.6859">
        <ele>139.048416</ele>
        <time>2016-10-13T09:38:37Z</time>
      </trkpt>
      <trkpt lat="48.42579" lon="2.6856">
        <ele>138.862503</ele>
        <time>2016-10-13T09:39:06Z</time>
      </trkpt>
      <trkpt lat="48.42575" lon="2.68565">
        <ele>138.945007</ele>
        <time>2016-10-13T09:39:08Z</time>
      </trkpt>
      <trkpt lat="48.42563" lon="2.68667">
        <ele>139.179993</ele>
        <time>2016-10-13T09:39:27Z</time>
      </trkpt>
      <trkpt lat="48.42554" lon="2.68859">
        <ele>139.957413</ele>
        <time>2016-10-13T09:40:00Z</time>
      </trkpt>
      <trkpt lat="48.42546" lon="2.68868">
        <ele>139.68425</ele>
        <time>2016-10-13T09:40:03Z</time>
      </trkpt>
      <trkpt lat="48.42483" lon="2.68878">
        <ele>137.749298</ele>
        <time>2016-10-13T09:40:18Z</time>
      </trkpt>
      <trkpt lat="48.42475" lon="2.68897">
        <ele>137.989807</ele>
        <time>2016-10-13T09:40:28Z</time>
      </trkpt>
      <trkpt lat="48.42476" lon="2.68892">
        <ele>137.880844</ele>
        <time>2016-10-13T09:40:38Z</time>
      </trkpt>
      <trkpt lat="48.42468" lon="2.68887">
        <ele>137.527191</ele>
        <time>2016-10-13T09:40:46Z</time>
      </trkpt>
      <trkpt lat="48.42451" lon="2.6889">
        <ele>136.797379</ele>
        <time>2016-10-13T09:40:56Z</time>
      </trkpt>
      <trkpt lat="48.42433" lon="2.68882">
        <ele>135.106934</ele>
        <time>2016-10-13T09:41:05Z</time>
      </trkpt>
      <trkpt lat="48.42415" lon="2.68894">
        <ele>135.200668</ele>
        <time>2016-10-13T09:42:17Z</time>
      </trkpt>
      <trkpt lat="48.42409" lon="2.68884">
        <ele>133.608795</ele>
        <time>2016-10-13T09:42:24Z</time>
      </trkpt>
      <trkpt lat="48.42397" lon="2.68896">
        <ele>134.189819</ele>
        <time>2016-10-13T09:47:57Z</time>
      </trkpt>
      <trkpt lat="48.42397" lon="2.68917">
        <ele>135.595444</ele>
        <time>2016-10-13T09:48:18Z</time>
      </trkpt>
      <trkpt lat="48.42392" lon="2.68938">
        <ele>135.476913</ele>
        <time>2016-10-13T09:48:41Z</time>
      </trkpt>
      <trkpt lat="48.42374" lon="2.68938">
        <ele>134.450119</ele>
        <time>2016-10-13T09:48:52Z</time>
      </trkpt>
      <trkpt lat="48.42346" lon="2.69009">
        <ele>131.533691</ele>
        <time>2016-10-13T09:49:21Z</time>
      </trkpt>
      <trkpt lat="48.42339" lon="2.69047">
        <ele>130.632446</ele>
        <time>2016-10-13T09:49:36Z</time>
      </trkpt>
      <trkpt lat="48.42342" lon="2.69076">
        <ele>128.690994</ele>
        <time>2016-10-13T09:50:10Z</time>
      </trkpt>
      <trkpt lat="48.42318" lon="2.69124">
        <ele>121.661629</ele>
        <time>2016-10-13T09:50:27Z</time>
      </trkpt>
      <trkpt lat="48.42307" lon="2.6913">
        <ele>120.214622</ele>
        <time>2016-10-13T09:50:30Z</time>
      </trkpt>
      <trkpt lat="48.42251" lon="2.69092">
        <ele>108.956505</ele>
        <time>2016-10-13T09:50:40Z</time>
      </trkpt>
      <trkpt lat="48.4222" lon="2.69079">
        <ele>106.150749</ele>
        <time>2016-10-13T09:50:46Z</time>
      </trkpt>
      <trkpt lat="48.42195" lon="2.69078">
        <ele>104.724777</ele>
        <time>2016-10-13T09:50:52Z</time>
      </trkpt>
      <trkpt lat="48.42172" lon="2.69133">
        <ele>106.236198</ele>
        <time>2016-10-13T09:51:08Z</time>
      </trkpt>
      <trkpt lat="48.4216" lon="2.69188">
        <ele>109.589371</ele>
        <time>2016-10-13T09:51:30Z</time>
      </trkpt>
      <trkpt lat="48.42135" lon="2.6919">
        <ele>108.026451</ele>
        <time>2016-10-13T09:51:47Z</time>
      </trkpt>
      <trkpt lat="48.4213" lon="2.69205">
        <ele>108.390083</ele>
        <time>2016-10-13T09:52:02Z</time>
      </trkpt>
      <trkpt lat="48.42114" lon="2.69214">
        <ele>107.249352</ele>
        <time>2016-10-13T09:52:16Z</time>
      </trkpt>
      <trkpt lat="48.42089" lon="2.69247">
        <ele>103.683502</ele>
        <time>2016-10-13T09:52:32Z</time>
      </trkpt>
      <trkpt lat="48.42091" lon="2.69273">
        <ele>102.296028</ele>
        <time>2016-10-13T09:52:45Z</time>
      </trkpt>
      <trkpt lat="48.42101" lon="2.69287">
        <ele>103.172096</ele>
        <time>2016-10-13T09:52:58Z</time>
      </trkpt>
      <trkpt lat="48.42101" lon="2.69302">
        <ele>101.990311</ele>
        <time>2016-10-13T09:53:16Z</time>
      </trkpt>
      <trkpt lat="48.42108" lon="2.69297">
        <ele>103.545425</ele>
        <time>2016-10-13T09:53:53Z</time>
      </trkpt>
      <trkpt lat="48.42116" lon="2.69308">
        <ele>104.243622</ele>
        <time>2016-10-13T09:54:15Z</time>
      </trkpt>
      <trkpt lat="48.42128" lon="2.69304">
        <ele>106.682747</ele>
        <time>2016-10-13T09:54:32Z</time>
      </trkpt>
      <trkpt lat="48.42157" lon="2.69348">
        <ele>107.746361</ele>
        <time>2016-10-13T09:55:05Z</time>
      </trkpt>
      <trkpt lat="48.42185" lon="2.69346">
        <ele>111.945</ele>
        <time>2016-10-13T09:55:23Z</time>
      </trkpt>
      <trkpt lat="48.42209" lon="2.69326">
        <ele>119.158249</ele>
        <time>2016-10-13T09:55:39Z</time>
      </trkpt>
      <trkpt lat="48.42218" lon="2.69326">
        <ele>121.397675</ele>
        <time>2016-10-13T09:55:45Z</time>
      </trkpt>
      <trkpt lat="48.42232" lon="2.69353">
        <ele>122.565598</ele>
        <time>2016-10-13T09:55:59Z</time>
      </trkpt>
      <trkpt lat="48.42235" lon="2.69368">
        <ele>121.860802</ele>
        <time>2016-10-13T09:56:09Z</time>
      </trkpt>
      <trkpt lat="48.42241" lon="2.69361">
        <ele>124.025002</ele>
        <time>2016-10-13T09:56:25Z</time>
      </trkpt>
      <trkpt lat="48.42281" lon="2.69421">
        <ele>128.442123</ele>
        <time>2016-10-13T09:57:10Z</time>
      </trkpt>
      <trkpt lat="48.42278" lon="2.69447">
        <ele>126.209198</ele>
        <time>2016-10-13T09:57:22Z</time>
      </trkpt>
      <trkpt lat="48.42274" lon="2.69452">
        <ele>124.461754</ele>
        <time>2016-10-13T09:57:27Z</time>
      </trkpt>
      <trkpt lat="48.42277" lon="2.69486">
        <ele>122.917099</ele>
        <time>2016-10-13T09:57:41Z</time>
      </trkpt>
      <trkpt lat="48.42307" lon="2.69459">
        <ele>129.582001</ele>
        <time>2016-10-13T09:58:17Z</time>
      </trkpt>
      <trkpt lat="48.42311" lon="2.69479">
        <ele>127.521248</ele>
        <time>2016-10-13T09:58:24Z</time>
      </trkpt>
      <trkpt lat="48.42321" lon="2.69495">
        <ele>126.246048</ele>
        <time>2016-10-13T09:58:31Z</time>
      </trkpt>
      <trkpt lat="48.4234" lon="2.69499">
        <ele>127.852966</ele>
        <time>2016-10-13T09:58:38Z</time>
      </trkpt>
      <trkpt lat="48.42368" lon="2.69481">
        <ele>132.943466</ele>
        <time>2016-10-13T09:58:51Z</time>
      </trkpt>
      <trkpt lat="48.42379" lon="2.69482">
        <ele>133.888168</ele>
        <time>2016-10-13T09:58:58Z</time>
      </trkpt>
      <trkpt lat="48.42388" lon="2.69495">
        <ele>134.197723</ele>
        <time>2016-10-13T09:59:07Z</time>
      </trkpt>
      <trkpt lat="48.42394" lon="2.69529">
        <ele>133.971954</ele>
        <time>2016-10-13T09:59:21Z</time>
      </trkpt>
      <trkpt lat="48.42406" lon="2.69548">
        <ele>135.03302</ele>
        <time>2016-10-13T09:59:27Z</time>
      </trkpt>
      <trkpt lat="48.42404" lon="2.69562">
        <ele>134.532135</ele>
        <time>2016-10-13T09:59:32Z</time>
      </trkpt>
      <trkpt lat="48.42392" lon="2.69591">
        <ele>133.164001</ele>
        <time>2016-10-13T09:59:44Z</time>
      </trkpt>
      <trkpt lat="48.4237" lon="2.69618">
        <ele>132.94574</ele>
        <time>2016-10-13T10:00:03Z</time>
      </trkpt>
      <trkpt lat="48.42359" lon="2.69642">
        <ele>132.017014</ele>
        <time>2016-10-13T10:00:14Z</time>
      </trkpt>
      <trkpt lat="48.42353" lon="2.69672">
        <ele>128.874649</ele>
        <time>2016-10-13T10:00:25Z</time>
      </trkpt>
      <trkpt lat="48.42374" lon="2.69716">
        <ele>131.097641</ele>
        <time>2016-10-13T10:00:45Z</time>
      </trkpt>
      <trkpt lat="48.42373" lon="2.69732">
        <ele>129.602371</ele>
        <time>2016-10-13T10:00:53Z</time>
      </trkpt>
      <trkpt lat="48.42366" lon="2.6973">
        <ele>128.122192</ele>
        <time>2016-10-13T10:01:02Z</time>
      </trkpt>
      <trkpt lat="48.42358" lon="2.69715">
        <ele>126.841873</ele>
        <time>2016-10-13T10:01:09Z</time>
      </trkpt>
      <trkpt lat="48.42339" lon="2.69717">
        <ele>121.36245</ele>
        <time>2016-10-13T10:01:18Z</time>
      </trkpt>
      <trkpt lat="48.42328" lon="2.69709">
        <ele>118.455978</ele>
        <time>2016-10-13T10:01:30Z</time>
      </trkpt>
      <trkpt lat="48.42322" lon="2.69767">
        <ele>117.539925</ele>
        <time>2016-10-13T10:01:51Z</time>
      </trkpt>
      <trkpt lat="48.42297" lon="2.69748">
        <ele>113.620903</ele>
        <time>2016-10-13T10:02:03Z</time>
      </trkpt>
      <trkpt lat="48.42249" lon="2.69734">
        <ele>109.305267</ele>
        <time>2016-10-13T10:02:20Z</time>
      </trkpt>
      <trkpt lat="48.42217" lon="2.69743">
        <ele>107.765251</ele>
        <time>2016-10-13T10:02:33Z</time>
      </trkpt>
      <trkpt lat="48.42206" lon="2.6974">
        <ele>106.137001</ele>
        <time>2016-10-13T10:02:36Z</time>
      </trkpt>
      <trkpt lat="48.42187" lon="2.69762">
        <ele>104.966408</ele>
        <time>2016-10-13T10:02:43Z</time>
      </trkpt>
      <trkpt lat="48.42182" lon="2.69777">
        <ele>105.000748</ele>
        <time>2016-10-13T10:02:46Z</time>
      </trkpt>
      <trkpt lat="48.42168" lon="2.69795">
        <ele>102.96405</ele>
        <time>2016-10-13T10:02:51Z</time>
      </trkpt>
      <trkpt lat="48.42144" lon="2.69804">
        <ele>99.25486</ele>
        <time>2016-10-13T10:02:59Z</time>
      </trkpt>
      <trkpt lat="48.42097" lon="2.6986">
        <ele>92.948753</ele>
        <time>2016-10-13T10:03:21Z</time>
      </trkpt>
      <trkpt lat="48.42089" lon="2.69926">
        <ele>93.6679</ele>
        <time>2016-10-13T10:03:36Z</time>
      </trkpt>
      <trkpt lat="48.42103" lon="2.69966">
        <ele>95.55825</ele>
        <time>2016-10-13T10:03:51Z</time>
      </trkpt>
      <trkpt lat="48.42103" lon="2.69987">
        <ele>96.214905</ele>
        <time>2016-10-13T10:04:01Z</time>
      </trkpt>
      <trkpt lat="48.42111" lon="2.70014">
        <ele>98.050423</ele>
        <time>2016-10-13T10:04:13Z</time>
      </trkpt>
      <trkpt lat="48.42136" lon="2.70044">
        <ele>101.589378</ele>
        <time>2016-10-13T10:04:36Z</time>
      </trkpt>
      <trkpt lat="48.42147" lon="2.70048">
        <ele>102.769699</ele>
        <time>2016-10-13T10:04:47Z</time>
      </trkpt>
      <trkpt lat="48.42152" lon="2.70084">
        <ele>106.285202</ele>
        <time>2016-10-13T10:05:16Z</time>
      </trkpt>
      <trkpt lat="48.42148" lon="2.7013">
        <ele>111.202301</ele>
        <time>2016-10-13T10:06:02Z</time>
      </trkpt>
      <trkpt lat="48.42143" lon="2.70133">
        <ele>111.137573</ele>
        <time>2016-10-13T10:06:07Z</time>
      </trkpt>
      <trkpt lat="48.42141" lon="2.70164">
        <ele>114.321922</ele>
        <time>2016-10-13T10:06:52Z</time>
      </trkpt>
      <trkpt lat="48.42154" lon="2.70177">
        <ele>116.91555</ele>
        <time>2016-10-13T10:07:27Z</time>
      </trkpt>
      <trkpt lat="48.42154" lon="2.70183">
        <ele>117.640953</ele>
        <time>2016-10-13T10:07:34Z</time>
      </trkpt>
      <trkpt lat="48.42172" lon="2.70184">
        <ele>118.069191</ele>
        <time>2016-10-13T10:08:09Z</time>
      </trkpt>
      <trkpt lat="48.42181" lon="2.70193">
        <ele>119.733337</ele>
        <time>2016-10-13T10:08:32Z</time>
      </trkpt>
      <trkpt lat="48.42182" lon="2.70232">
        <ele>126.496407</ele>
        <time>2016-10-13T10:09:10Z</time>
      </trkpt>
      <trkpt lat="48.42185" lon="2.70231">
        <ele>126.607597</ele>
        <time>2016-10-13T10:09:18Z</time>
      </trkpt>
      <trkpt lat="48.42187" lon="2.70261">
        <ele>130.920395</ele>
        <time>2016-10-13T10:26:11Z</time>
      </trkpt>
      <trkpt lat="48.42208" lon="2.70299">
        <ele>131.666397</ele>
        <time>2016-10-13T10:26:45Z</time>
      </trkpt>
      <trkpt lat="48.42203" lon="2.70311">
        <ele>131.006805</ele>
        <time>2016-10-13T10:26:52Z</time>
      </trkpt>
      <trkpt lat="48.4221" lon="2.70342">
        <ele>131.354492</ele>
        <time>2016-10-13T10:27:03Z</time>
      </trkpt>
      <trkpt lat="48.42211" lon="2.70395">
        <ele>130.436646</ele>
        <time>2016-10-13T10:27:20Z</time>
      </trkpt>
      <trkpt lat="48.4219" lon="2.70431">
        <ele>130.486252</ele>
        <time>2016-10-13T10:27:41Z</time>
      </trkpt>
      <trkpt lat="48.42182" lon="2.70433">
        <ele>130.167496</ele>
        <time>2016-10-13T10:27:47Z</time>
      </trkpt>
      <trkpt lat="48.42183" lon="2.70456">
        <ele>133.306244</ele>
        <time>2016-10-13T10:28:00Z</time>
      </trkpt>
      <trkpt lat="48.42169" lon="2.70486">
        <ele>133.198181</ele>
        <time>2016-10-13T10:28:13Z</time>
      </trkpt>
      <trkpt lat="48.42159" lon="2.70551">
        <ele>132.951202</ele>
        <time>2016-10-13T10:28:35Z</time>
      </trkpt>
      <trkpt lat="48.42158" lon="2.70621">
        <ele>132.118423</ele>
        <time>2016-10-13T10:28:58Z</time>
      </trkpt>
      <trkpt lat="48.42163" lon="2.70631">
        <ele>132.76767</ele>
        <time>2016-10-13T10:29:01Z</time>
      </trkpt>
      <trkpt lat="48.42163" lon="2.70665">
        <ele>132.824997</ele>
        <time>2016-10-13T10:29:11Z</time>
      </trkpt>
      <trkpt lat="48.42204" lon="2.70693">
        <ele>135.165543</ele>
        <time>2016-10-13T10:29:26Z</time>
      </trkpt>
      <trkpt lat="48.42215" lon="2.70728">
        <ele>134.707855</ele>
        <time>2016-10-13T10:29:35Z</time>
      </trkpt>
      <trkpt lat="48.42209" lon="2.70742">
        <ele>134.185638</ele>
        <time>2016-10-13T10:29:40Z</time>
      </trkpt>
      <trkpt lat="48.42195" lon="2.70753">
        <ele>133.067017</ele>
        <time>2016-10-13T10:29:46Z</time>
      </trkpt>
      <trkpt lat="48.42179" lon="2.7079">
        <ele>129.165848</ele>
        <time>2016-10-13T10:30:01Z</time>
      </trkpt>
      <trkpt lat="48.42196" lon="2.70852">
        <ele>129.605606</ele>
        <time>2016-10-13T10:30:19Z</time>
      </trkpt>
      <trkpt lat="48.4221" lon="2.70866">
        <ele>130.704391</ele>
        <time>2016-10-13T10:30:32Z</time>
      </trkpt>
      <trkpt lat="48.42171" lon="2.7086">
        <ele>123.227074</ele>
        <time>2016-10-13T10:30:49Z</time>
      </trkpt>
      <trkpt lat="48.4217" lon="2.70852">
        <ele>123.3424</ele>
        <time>2016-10-13T10:30:53Z</time>
      </trkpt>
      <trkpt lat="48.42142" lon="2.70838">
        <ele>116.44017</ele>
        <time>2016-10-13T10:31:03Z</time>
      </trkpt>
      <trkpt lat="48.42117" lon="2.70844">
        <ele>111.644997</ele>
        <time>2016-10-13T10:31:15Z</time>
      </trkpt>
      <trkpt lat="48.4211" lon="2.70835">
        <ele>110.849106</ele>
        <time>2016-10-13T10:31:18Z</time>
      </trkpt>
      <trkpt lat="48.42092" lon="2.70786">
        <ele>112.86113</ele>
        <time>2016-10-13T10:31:28Z</time>
      </trkpt>
      <trkpt lat="48.42022" lon="2.70785">
        <ele>103.642128</ele>
        <time>2016-10-13T10:31:49Z</time>
      </trkpt>
      <trkpt lat="48.41998" lon="2.70796">
        <ele>99.228439</ele>
        <time>2016-10-13T10:32:01Z</time>
      </trkpt>
      <trkpt lat="48.41982" lon="2.70779">
        <ele>97.219704</ele>
        <time>2016-10-13T10:32:07Z</time>
      </trkpt>
      <trkpt lat="48.4196" lon="2.70701">
        <ele>95.580002</ele>
        <time>2016-10-13T10:32:26Z</time>
      </trkpt>
      <trkpt lat="48.41949" lon="2.70643">
        <ele>94.768196</ele>
        <time>2016-10-13T10:32:38Z</time>
      </trkpt>
      <trkpt lat="48.41931" lon="2.70642">
        <ele>93.080559</ele>
        <time>2016-10-13T10:32:45Z</time>
      </trkpt>
      <trkpt lat="48.4191" lon="2.70707">
        <ele>91.534134</ele>
        <time>2016-10-13T10:32:57Z</time>
      </trkpt>
      <trkpt lat="48.41887" lon="2.70744">
        <ele>90.759796</ele>
        <time>2016-10-13T10:33:05Z</time>
      </trkpt>
      <trkpt lat="48.4188" lon="2.70768">
        <ele>90.774025</ele>
        <time>2016-10-13T10:33:10Z</time>
      </trkpt>
      <trkpt lat="48.41869" lon="2.7083">
        <ele>91.848</ele>
        <time>2016-10-13T10:33:28Z</time>
      </trkpt>
      <trkpt lat="48.4187" lon="2.70852">
        <ele>92.495537</ele>
        <time>2016-10-13T10:33:33Z</time>
      </trkpt>
      <trkpt lat="48.41895" lon="2.70894">
        <ele>95.376923</ele>
        <time>2016-10-13T10:33:55Z</time>
      </trkpt>
      <trkpt lat="48.41928" lon="2.7097">
        <ele>101.331322</ele>
        <time>2016-10-13T10:34:34Z</time>
      </trkpt>
      <trkpt lat="48.4194" lon="2.71012">
        <ele>103.683563</ele>
        <time>2016-10-13T10:34:59Z</time>
      </trkpt>
      <trkpt lat="48.4196" lon="2.71022">
        <ele>106.772171</ele>
        <time>2016-10-13T10:36:11Z</time>
      </trkpt>
      <trkpt lat="48.42003" lon="2.71077">
        <ele>112.707901</ele>
        <time>2016-10-13T10:38:34Z</time>
      </trkpt>
      <trkpt lat="48.42028" lon="2.71091">
        <ele>115.370247</ele>
        <time>2016-10-13T10:38:54Z</time>
      </trkpt>
      <trkpt lat="48.42057" lon="2.7112">
        <ele>122.021172</ele>
        <time>2016-10-13T10:39:24Z</time>
      </trkpt>
      <trkpt lat="48.42072" lon="2.71148">
        <ele>123.761154</ele>
        <time>2016-10-13T10:39:42Z</time>
      </trkpt>
      <trkpt lat="48.42104" lon="2.71164">
        <ele>127.199066</ele>
        <time>2016-10-13T10:40:09Z</time>
      </trkpt>
      <trkpt lat="48.42109" lon="2.71175">
        <ele>127.838028</ele>
        <time>2016-10-13T10:40:13Z</time>
      </trkpt>
      <trkpt lat="48.421" lon="2.71189">
        <ele>128.591171</ele>
        <time>2016-10-13T10:40:21Z</time>
      </trkpt>
      <trkpt lat="48.42093" lon="2.71235">
        <ele>129.725006</ele>
        <time>2016-10-13T10:40:42Z</time>
      </trkpt>
      <trkpt lat="48.42076" lon="2.71286">
        <ele>128.737305</ele>
        <time>2016-10-13T10:40:58Z</time>
      </trkpt>
      <trkpt lat="48.42075" lon="2.71304">
        <ele>129.89357</ele>
        <time>2016-10-13T10:41:04Z</time>
      </trkpt>
      <trkpt lat="48.42083" lon="2.71308">
        <ele>132.498703</ele>
        <time>2016-10-13T10:41:58Z</time>
      </trkpt>
      <trkpt lat="48.42084" lon="2.71301">
        <ele>132.228622</ele>
        <time>2016-10-13T10:42:13Z</time>
      </trkpt>
      <trkpt lat="48.42091" lon="2.71312">
        <ele>135.090256</ele>
        <time>2016-10-13T10:42:33Z</time>
      </trkpt>
      <trkpt lat="48.42082" lon="2.71347">
        <ele>135.373871</ele>
        <time>2016-10-13T10:42:50Z</time>
      </trkpt>
      <trkpt lat="48.42084" lon="2.71376">
        <ele>137.670059</ele>
        <time>2016-10-13T10:43:01Z</time>
      </trkpt>
      <trkpt lat="48.42077" lon="2.71392">
        <ele>137.562744</ele>
        <time>2016-10-13T10:43:13Z</time>
      </trkpt>
      <trkpt lat="48.42081" lon="2.71397">
        <ele>138.478394</ele>
        <time>2016-10-13T10:43:17Z</time>
      </trkpt>
      <trkpt lat="48.42084" lon="2.71393">
        <ele>138.62088</ele>
        <time>2016-10-13T10:43:20Z</time>
      </trkpt>
      <trkpt lat="48.42076" lon="2.71376">
        <ele>136.136734</ele>
        <time>2016-10-13T10:43:34Z</time>
      </trkpt>
      <trkpt lat="48.42064" lon="2.71393">
        <ele>135.545822</ele>
        <time>2016-10-13T10:44:47Z</time>
      </trkpt>
      <trkpt lat="48.42051" lon="2.71399">
        <ele>134.274994</ele>
        <time>2016-10-13T10:45:20Z</time>
      </trkpt>
      <trkpt lat="48.42045" lon="2.71394">
        <ele>132.205002</ele>
        <time>2016-10-13T10:45:25Z</time>
      </trkpt>
      <trkpt lat="48.42034" lon="2.71403">
        <ele>130.609299</ele>
        <time>2016-10-13T10:45:33Z</time>
      </trkpt>
      <trkpt lat="48.42031" lon="2.71457">
        <ele>135.337143</ele>
        <time>2016-10-13T10:45:56Z</time>
      </trkpt>
      <trkpt lat="48.42013" lon="2.71471">
        <ele>134.721924</ele>
        <time>2016-10-13T10:46:08Z</time>
      </trkpt>
      <trkpt lat="48.41985" lon="2.71476">
        <ele>134.048096</ele>
        <time>2016-10-13T10:47:06Z</time>
      </trkpt>
      <trkpt lat="48.42007" lon="2.71479">
        <ele>134.427658</ele>
        <time>2016-10-13T10:47:55Z</time>
      </trkpt>
      <trkpt lat="48.42022" lon="2.71465">
        <ele>135.061508</ele>
        <time>2016-10-13T10:48:13Z</time>
      </trkpt>
      <trkpt lat="48.42028" lon="2.71441">
        <ele>133.194336</ele>
        <time>2016-10-13T10:48:26Z</time>
      </trkpt>
      <trkpt lat="48.42018" lon="2.71447">
        <ele>132.34613</ele>
        <time>2016-10-13T10:48:35Z</time>
      </trkpt>
      <trkpt lat="48.42013" lon="2.7144">
        <ele>130.612808</ele>
        <time>2016-10-13T10:48:51Z</time>
      </trkpt>
      <trkpt lat="48.4199" lon="2.71438">
        <ele>129.253433</ele>
        <time>2016-10-13T10:49:18Z</time>
      </trkpt>
      <trkpt lat="48.41971" lon="2.71454">
        <ele>131.611603</ele>
        <time>2016-10-13T10:49:54Z</time>
      </trkpt>
      <trkpt lat="48.41964" lon="2.7144">
        <ele>129.300903</ele>
        <time>2016-10-13T10:50:36Z</time>
      </trkpt>
      <trkpt lat="48.41915" lon="2.71394">
        <ele>115.693672</ele>
        <time>2016-10-13T10:51:25Z</time>
      </trkpt>
      <trkpt lat="48.41898" lon="2.71394">
        <ele>111.420799</ele>
        <time>2016-10-13T10:51:30Z</time>
      </trkpt>
      <trkpt lat="48.41871" lon="2.71382">
        <ele>104.586052</ele>
        <time>2016-10-13T10:51:37Z</time>
      </trkpt>
      <trkpt lat="48.41848" lon="2.71363">
        <ele>99.667999</ele>
        <time>2016-10-13T10:51:45Z</time>
      </trkpt>
      <trkpt lat="48.41834" lon="2.71433">
        <ele>98.598755</ele>
        <time>2016-10-13T10:52:17Z</time>
      </trkpt>
      <trkpt lat="48.41834" lon="2.7147">
        <ele>98.208237</ele>
        <time>2016-10-13T10:52:27Z</time>
      </trkpt>
      <trkpt lat="48.41856" lon="2.71618">
        <ele>100.983528</ele>
        <time>2016-10-13T10:53:02Z</time>
      </trkpt>
      <trkpt lat="48.41869" lon="2.71664">
        <ele>101.056625</ele>
        <time>2016-10-13T10:53:15Z</time>
      </trkpt>
      <trkpt lat="48.41884" lon="2.71686">
        <ele>102.557373</ele>
        <time>2016-10-13T10:53:24Z</time>
      </trkpt>
      <trkpt lat="48.4192" lon="2.717">
        <ele>107.345085</ele>
        <time>2016-10-13T10:53:44Z</time>
      </trkpt>
      <trkpt lat="48.41941" lon="2.71698">
        <ele>111.361496</ele>
        <time>2016-10-13T10:54:15Z</time>
      </trkpt>
      <trkpt lat="48.41978" lon="2.7166">
        <ele>115.503403</ele>
        <time>2016-10-13T10:55:12Z</time>
      </trkpt>
      <trkpt lat="48.41993" lon="2.71664">
        <ele>117.054314</ele>
        <time>2016-10-13T10:55:25Z</time>
      </trkpt>
      <trkpt lat="48.42017" lon="2.71656">
        <ele>123.253998</ele>
        <time>2016-10-13T10:56:18Z</time>
      </trkpt>
      <trkpt lat="48.42018" lon="2.7166">
        <ele>122.803123</ele>
        <time>2016-10-13T10:56:48Z</time>
      </trkpt>
      <trkpt lat="48.42027" lon="2.71642">
        <ele>127.244873</ele>
        <time>2016-10-13T10:57:15Z</time>
      </trkpt>
      <trkpt lat="48.41997" lon="2.71588">
        <ele>128.881271</ele>
        <time>2016-10-13T10:58:05Z</time>
      </trkpt>
      <trkpt lat="48.41996" lon="2.71576">
        <ele>130.366669</ele>
        <time>2016-10-13T10:58:13Z</time>
      </trkpt>
      <trkpt lat="48.42008" lon="2.71548">
        <ele>135.596558</ele>
        <time>2016-10-13T10:58:41Z</time>
      </trkpt>
      <trkpt lat="48.42023" lon="2.71536">
        <ele>138.034393</ele>
        <time>2016-10-13T10:59:30Z</time>
      </trkpt>
      <trkpt lat="48.42026" lon="2.71526">
        <ele>137.878815</ele>
        <time>2016-10-13T11:00:11Z</time>
      </trkpt>
      <trkpt lat="48.42036" lon="2.71534">
        <ele>138.895294</ele>
        <time>2016-10-13T11:00:43Z</time>
      </trkpt>
      <trkpt lat="48.42043" lon="2.7155">
        <ele>138.449997</ele>
        <time>2016-10-13T11:01:00Z</time>
      </trkpt>
      <trkpt lat="48.42065" lon="2.71573">
        <ele>138.613708</ele>
        <time>2016-10-13T11:01:15Z</time>
      </trkpt>
      <trkpt lat="48.42078" lon="2.71571">
        <ele>139.44606</ele>
        <time>2016-10-13T11:01:25Z</time>
      </trkpt>
      <trkpt lat="48.42096" lon="2.716">
        <ele>139.207031</ele>
        <time>2016-10-13T11:01:35Z</time>
      </trkpt>
      <trkpt lat="48.42098" lon="2.71612">
        <ele>138.895203</ele>
        <time>2016-10-13T11:01:39Z</time>
      </trkpt>
      <trkpt lat="48.42113" lon="2.71626">
        <ele>139.326401</ele>
        <time>2016-10-13T11:01:47Z</time>
      </trkpt>
      <trkpt lat="48.42102" lon="2.71662">
        <ele>137.785339</ele>
        <time>2016-10-13T11:02:00Z</time>
      </trkpt>
      <trkpt lat="48.42095" lon="2.71711">
        <ele>138.024994</ele>
        <time>2016-10-13T11:02:14Z</time>
      </trkpt>
      <trkpt lat="48.42074" lon="2.71775">
        <ele>136.590759</ele>
        <time>2016-10-13T11:02:26Z</time>
      </trkpt>
      <trkpt lat="48.42073" lon="2.71817">
        <ele>136.992798</ele>
        <time>2016-10-13T11:02:35Z</time>
      </trkpt>
      <trkpt lat="48.42053" lon="2.71843">
        <ele>135.664001</ele>
        <time>2016-10-13T11:02:46Z</time>
      </trkpt>
      <trkpt lat="48.42058" lon="2.719">
        <ele>136.406494</ele>
        <time>2016-10-13T11:03:00Z</time>
      </trkpt>
      <trkpt lat="48.42069" lon="2.71926">
        <ele>136.909225</ele>
        <time>2016-10-13T11:03:11Z</time>
      </trkpt>
      <trkpt lat="48.42051" lon="2.7198">
        <ele>136.559357</ele>
        <time>2016-10-13T11:03:32Z</time>
      </trkpt>
      <trkpt lat="48.42069" lon="2.72008">
        <ele>136.59082</ele>
        <time>2016-10-13T11:03:46Z</time>
      </trkpt>
      <trkpt lat="48.42086" lon="2.72015">
        <ele>135.485291</ele>
        <time>2016-10-13T11:03:53Z</time>
      </trkpt>
      <trkpt lat="48.42099" lon="2.7201">
        <ele>135.617996</ele>
        <time>2016-10-13T11:04:02Z</time>
      </trkpt>
      <trkpt lat="48.4211" lon="2.71968">
        <ele>136.649506</ele>
        <time>2016-10-13T11:04:32Z</time>
      </trkpt>
      <trkpt lat="48.42127" lon="2.7196">
        <ele>136.638092</ele>
        <time>2016-10-13T11:04:39Z</time>
      </trkpt>
      <trkpt lat="48.42181" lon="2.7201">
        <ele>130.159256</ele>
        <time>2016-10-13T11:05:13Z</time>
      </trkpt>
      <trkpt lat="48.42199" lon="2.71998">
        <ele>129.770844</ele>
        <time>2016-10-13T11:05:25Z</time>
      </trkpt>
      <trkpt lat="48.42211" lon="2.71979">
        <ele>130.652496</ele>
        <time>2016-10-13T11:05:33Z</time>
      </trkpt>
      <trkpt lat="48.42221" lon="2.7194">
        <ele>134.215256</ele>
        <time>2016-10-13T11:05:50Z</time>
      </trkpt>
      <trkpt lat="48.42251" lon="2.71903">
        <ele>134.443329</ele>
        <time>2016-10-13T11:06:09Z</time>
      </trkpt>
      <trkpt lat="48.42259" lon="2.71885">
        <ele>136.219696</ele>
        <time>2016-10-13T11:06:17Z</time>
      </trkpt>
      <trkpt lat="48.42288" lon="2.71885">
        <ele>136.595398</ele>
        <time>2016-10-13T11:06:24Z</time>
      </trkpt>
      <trkpt lat="48.42335" lon="2.71908">
        <ele>136.921204</ele>
        <time>2016-10-13T11:06:43Z</time>
      </trkpt>
      <trkpt lat="48.42349" lon="2.71928">
        <ele>136.262665</ele>
        <time>2016-10-13T11:06:50Z</time>
      </trkpt>
      <trkpt lat="48.42369" lon="2.71929">
        <ele>137.5625</ele>
        <time>2016-10-13T11:06:59Z</time>
      </trkpt>
      <trkpt lat="48.42396" lon="2.71957">
        <ele>135.762497</ele>
        <time>2016-10-13T11:07:12Z</time>
      </trkpt>
      <trkpt lat="48.42427" lon="2.71965">
        <ele>136.008072</ele>
        <time>2016-10-13T11:07:43Z</time>
      </trkpt>
      <trkpt lat="48.42431" lon="2.7199">
        <ele>133.822617</ele>
        <time>2016-10-13T11:07:49Z</time>
      </trkpt>
      <trkpt lat="48.42441" lon="2.72016">
        <ele>132.855652</ele>
        <time>2016-10-13T11:07:56Z</time>
      </trkpt>
      <trkpt lat="48.4244" lon="2.72038">
        <ele>131.042023</ele>
        <time>2016-10-13T11:08:01Z</time>
      </trkpt>
      <trkpt lat="48.42452" lon="2.72065">
        <ele>131.910156</ele>
        <time>2016-10-13T11:08:08Z</time>
      </trkpt>
      <trkpt lat="48.42468" lon="2.72129">
        <ele>128.438507</ele>
        <time>2016-10-13T11:08:21Z</time>
      </trkpt>
      <trkpt lat="48.42474" lon="2.7213">
        <ele>128.04837</ele>
        <time>2016-10-13T11:08:24Z</time>
      </trkpt>
      <trkpt lat="48.42489" lon="2.72117">
        <ele>128.852875</ele>
        <time>2016-10-13T11:08:34Z</time>
      </trkpt>
      <trkpt lat="48.42515" lon="2.72122">
        <ele>126.712738</ele>
        <time>2016-10-13T11:08:48Z</time>
      </trkpt>
      <trkpt lat="48.4253" lon="2.72098">
        <ele>130.366669</ele>
        <time>2016-10-13T11:08:57Z</time>
      </trkpt>
      <trkpt lat="48.42584" lon="2.72085">
        <ele>134.110352</ele>
        <time>2016-10-13T11:09:20Z</time>
      </trkpt>
      <trkpt lat="48.42606" lon="2.721">
        <ele>129.319275</ele>
        <time>2016-10-13T11:09:30Z</time>
      </trkpt>
      <trkpt lat="48.42627" lon="2.7207">
        <ele>131.398804</ele>
        <time>2016-10-13T11:09:45Z</time>
      </trkpt>
      <trkpt lat="48.42657" lon="2.7199">
        <ele>136.641525</ele>
        <time>2016-10-13T11:10:16Z</time>
      </trkpt>
      <trkpt lat="48.42662" lon="2.71987">
        <ele>136.546341</ele>
        <time>2016-10-13T11:10:19Z</time>
      </trkpt>
      <trkpt lat="48.42692" lon="2.71992">
        <ele>135.449905</ele>
        <time>2016-10-13T11:10:30Z</time>
      </trkpt>
      <trkpt lat="48.42705" lon="2.72003">
        <ele>135.335953</ele>
        <time>2016-10-13T11:10:35Z</time>
      </trkpt>
      <trkpt lat="48.42745" lon="2.71998">
        <ele>133.959595</ele>
        <time>2016-10-13T11:10:49Z</time>
      </trkpt>
      <trkpt lat="48.42759" lon="2.72029">
        <ele>130.943985</ele>
        <time>2016-10-13T11:11:00Z</time>
      </trkpt>
      <trkpt lat="48.42759" lon="2.72126">
        <ele>125.879128</ele>
        <time>2016-10-13T11:11:17Z</time>
      </trkpt>
      <trkpt lat="48.42769" lon="2.72109">
        <ele>126.140778</ele>
        <time>2016-10-13T11:11:24Z</time>
      </trkpt>
      <trkpt lat="48.42788" lon="2.72045">
        <ele>125.8246</ele>
        <time>2016-10-13T11:11:37Z</time>
      </trkpt>
      <trkpt lat="48.42799" lon="2.72048">
        <ele>123.874252</ele>
        <time>2016-10-13T11:11:44Z</time>
      </trkpt>
      <trkpt lat="48.42812" lon="2.72073">
        <ele>120.001274</ele>
        <time>2016-10-13T11:11:55Z</time>
      </trkpt>
      <trkpt lat="48.42828" lon="2.72045">
        <ele>123.305</ele>
        <time>2016-10-13T11:12:14Z</time>
      </trkpt>
      <trkpt lat="48.42834" lon="2.71989">
        <ele>127.686676</ele>
        <time>2016-10-13T11:12:40Z</time>
      </trkpt>
      <trkpt lat="48.42785" lon="2.71877">
        <ele>137.502335</ele>
        <time>2016-10-13T11:13:51Z</time>
      </trkpt>
      <trkpt lat="48.42787" lon="2.71853">
        <ele>138.608902</ele>
        <time>2016-10-13T11:14:02Z</time>
      </trkpt>
      <trkpt lat="48.42793" lon="2.71839">
        <ele>139.131729</ele>
        <time>2016-10-13T11:14:08Z</time>
      </trkpt>
      <trkpt lat="48.42794" lon="2.7182">
        <ele>140.089401</ele>
        <time>2016-10-13T11:14:16Z</time>
      </trkpt>
      <trkpt lat="48.42886" lon="2.71808">
        <ele>139.032944</ele>
        <time>2016-10-13T11:14:49Z</time>
      </trkpt>
      <trkpt lat="48.42956" lon="2.71848">
        <ele>139.430344</ele>
        <time>2016-10-13T11:15:08Z</time>
      </trkpt>
      <trkpt lat="48.42975" lon="2.71867">
        <ele>139.350998</ele>
        <time>2016-10-13T11:15:15Z</time>
      </trkpt>
      <trkpt lat="48.43051" lon="2.71877">
        <ele>136.284607</ele>
        <time>2016-10-13T11:15:33Z</time>
      </trkpt>
      <trkpt lat="48.43093" lon="2.71939">
        <ele>132.49675</ele>
        <time>2016-10-13T11:15:46Z</time>
      </trkpt>
      <trkpt lat="48.43199" lon="2.72014">
        <ele>125.879997</ele>
        <time>2016-10-13T11:16:08Z</time>
      </trkpt>
      <trkpt lat="48.43221" lon="2.72049">
        <ele>122.067505</ele>
        <time>2016-10-13T11:16:17Z</time>
      </trkpt>
      <trkpt lat="48.43288" lon="2.7212">
        <ele>113.14032</ele>
        <time>2016-10-13T11:16:32Z</time>
      </trkpt>
      <trkpt lat="48.43303" lon="2.72126">
        <ele>111.857536</ele>
        <time>2016-10-13T11:16:37Z</time>
      </trkpt>
      <trkpt lat="48.43313" lon="2.72151">
        <ele>111.126251</ele>
        <time>2016-10-13T11:16:46Z</time>
      </trkpt>
      <trkpt lat="48.43314" lon="2.72173">
        <ele>111.748154</ele>
        <time>2016-10-13T11:16:54Z</time>
      </trkpt>
      <trkpt lat="48.43302" lon="2.72198">
        <ele>112.647873</ele>
        <time>2016-10-13T11:17:02Z</time>
      </trkpt>
      <trkpt lat="48.43284" lon="2.72301">
        <ele>114.531654</ele>
        <time>2016-10-13T11:17:27Z</time>
      </trkpt>
      <trkpt lat="48.43283" lon="2.7235">
        <ele>114.729202</ele>
        <time>2016-10-13T11:17:37Z</time>
      </trkpt>
      <trkpt lat="48.43277" lon="2.72386">
        <ele>114.003998</ele>
        <time>2016-10-13T11:17:45Z</time>
      </trkpt>
      <trkpt lat="48.43282" lon="2.72396">
        <ele>114.189651</ele>
        <time>2016-10-13T11:17:50Z</time>
      </trkpt>
      <trkpt lat="48.43307" lon="2.72383">
        <ele>116.151688</ele>
        <time>2016-10-13T11:18:12Z</time>
      </trkpt>
      <trkpt lat="48.43323" lon="2.72385">
        <ele>119.022804</ele>
        <time>2016-10-13T11:19:01Z</time>
      </trkpt>
      <trkpt lat="48.43333" lon="2.72396">
        <ele>120.703842</ele>
        <time>2016-10-13T11:19:25Z</time>
      </trkpt>
      <trkpt lat="48.43334" lon="2.72412">
        <ele>120.613167</ele>
        <time>2016-10-13T11:19:39Z</time>
      </trkpt>
      <trkpt lat="48.43345" lon="2.72435">
        <ele>122.489426</ele>
        <time>2016-10-13T11:20:01Z</time>
      </trkpt>
      <trkpt lat="48.43357" lon="2.72442">
        <ele>124.602524</ele>
        <time>2016-10-13T11:20:14Z</time>
      </trkpt>
      <trkpt lat="48.43369" lon="2.72436">
        <ele>126.12719</ele>
        <time>2016-10-13T11:20:35Z</time>
      </trkpt>
      <trkpt lat="48.43387" lon="2.72442">
        <ele>128.148727</ele>
        <time>2016-10-13T11:21:00Z</time>
      </trkpt>
      <trkpt lat="48.43399" lon="2.72471">
        <ele>128.147507</ele>
        <time>2016-10-13T11:21:35Z</time>
      </trkpt>
      <trkpt lat="48.43412" lon="2.7243">
        <ele>124.900002</ele>
        <time>2016-10-13T11:22:16Z</time>
      </trkpt>
      <trkpt lat="48.43413" lon="2.724">
        <ele>123.591827</ele>
        <time>2016-10-13T11:22:25Z</time>
      </trkpt>
      <trkpt lat="48.43398" lon="2.72356">
        <ele>127.984428</ele>
        <time>2016-10-13T11:22:42Z</time>
      </trkpt>
      <trkpt lat="48.43405" lon="2.72306">
        <ele>125.677628</ele>
        <time>2016-10-13T11:22:59Z</time>
      </trkpt>
      <trkpt lat="48.43409" lon="2.72297">
        <ele>124.121452</ele>
        <time>2016-10-13T11:23:03Z</time>
      </trkpt>
      <trkpt lat="48.43409" lon="2.72278">
        <ele>124.032814</ele>
        <time>2016-10-13T11:23:11Z</time>
      </trkpt>
      <trkpt lat="48.43429" lon="2.7221">
        <ele>118.337303</ele>
        <time>2016-10-13T11:23:34Z</time>
      </trkpt>
      <trkpt lat="48.43427" lon="2.7219">
        <ele>116.974396</ele>
        <time>2016-10-13T11:23:43Z</time>
      </trkpt>
      <trkpt lat="48.43442" lon="2.72163">
        <ele>113.55941</ele>
        <time>2016-10-13T11:24:08Z</time>
      </trkpt>
      <trkpt lat="48.43448" lon="2.72119">
        <ele>110.161873</ele>
        <time>2016-10-13T11:24:21Z</time>
      </trkpt>
      <trkpt lat="48.43469" lon="2.72066">
        <ele>107.576378</ele>
        <time>2016-10-13T11:24:35Z</time>
      </trkpt>
      <trkpt lat="48.43475" lon="2.72034">
        <ele>105.317665</ele>
        <time>2016-10-13T11:24:41Z</time>
      </trkpt>
      <trkpt lat="48.43472" lon="2.71965">
        <ele>104.690651</ele>
        <time>2016-10-13T11:24:53Z</time>
      </trkpt>
      <trkpt lat="48.43482" lon="2.71912">
        <ele>104.339996</ele>
        <time>2016-10-13T11:25:06Z</time>
      </trkpt>
      <trkpt lat="48.43478" lon="2.71887">
        <ele>104.510002</ele>
        <time>2016-10-13T11:25:15Z</time>
      </trkpt>
      <trkpt lat="48.43482" lon="2.71858">
        <ele>105.403374</ele>
        <time>2016-10-13T11:25:29Z</time>
      </trkpt>
      <trkpt lat="48.43496" lon="2.71813">
        <ele>106.77375</ele>
        <time>2016-10-13T11:25:44Z</time>
      </trkpt>
      <trkpt lat="48.43494" lon="2.71747">
        <ele>111.894241</ele>
        <time>2016-10-13T11:26:13Z</time>
      </trkpt>
      <trkpt lat="48.43513" lon="2.71699">
        <ele>112.610214</ele>
        <time>2016-10-13T11:26:41Z</time>
      </trkpt>
      <trkpt lat="48.43526" lon="2.71609">
        <ele>111.932999</ele>
        <time>2016-10-13T11:27:22Z</time>
      </trkpt>
      <trkpt lat="48.4353" lon="2.71608">
        <ele>111.596924</ele>
        <time>2016-10-13T11:28:20Z</time>
      </trkpt>
      <trkpt lat="48.43528" lon="2.71576">
        <ele>112.546066</ele>
        <time>2016-10-13T11:28:50Z</time>
      </trkpt>
      <trkpt lat="48.43532" lon="2.71567">
        <ele>112.573273</ele>
        <time>2016-10-13T11:29:04Z</time>
      </trkpt>
      <trkpt lat="48.43518" lon="2.71545">
        <ele>113.16172</ele>
        <time>2016-10-13T11:29:33Z</time>
      </trkpt>
      <trkpt lat="48.43526" lon="2.71526">
        <ele>111.414818</ele>
        <time>2016-10-13T11:29:50Z</time>
      </trkpt>
      <trkpt lat="48.43524" lon="2.71508">
        <ele>110.138649</ele>
        <time>2016-10-13T11:30:13Z</time>
      </trkpt>
      <trkpt lat="48.43454" lon="2.71437">
        <ele>110.128876</ele>
        <time>2016-10-13T11:30:45Z</time>
      </trkpt>
      <trkpt lat="48.43428" lon="2.71402">
        <ele>110.742523</ele>
        <time>2016-10-13T11:30:55Z</time>
      </trkpt>
      <trkpt lat="48.43426" lon="2.71373">
        <ele>111.85569</ele>
        <time>2016-10-13T11:31:02Z</time>
      </trkpt>
      <trkpt lat="48.43435" lon="2.71244">
        <ele>113.743752</ele>
        <time>2016-10-13T11:31:42Z</time>
      </trkpt>
      <trkpt lat="48.43442" lon="2.71203">
        <ele>113.519249</ele>
        <time>2016-10-13T11:31:48Z</time>
      </trkpt>
      <trkpt lat="48.43443" lon="2.71161">
        <ele>113.578247</ele>
        <time>2016-10-13T11:31:55Z</time>
      </trkpt>
      <trkpt lat="48.4345" lon="2.71133">
        <ele>112.869995</ele>
        <time>2016-10-13T11:31:59Z</time>
      </trkpt>
      <trkpt lat="48.43447" lon="2.71094">
        <ele>113.690002</ele>
        <time>2016-10-13T11:32:14Z</time>
      </trkpt>
      <trkpt lat="48.43452" lon="2.71077">
        <ele>113.544998</ele>
        <time>2016-10-13T11:33:00Z</time>
      </trkpt>
      <trkpt lat="48.43475" lon="2.71052">
        <ele>111.980576</ele>
        <time>2016-10-13T11:33:08Z</time>
      </trkpt>
      <trkpt lat="48.4352" lon="2.71084">
        <ele>113.530624</ele>
        <time>2016-10-13T11:33:34Z</time>
      </trkpt>
      <trkpt lat="48.43553" lon="2.7107">
        <ele>116.94455</ele>
        <time>2016-10-13T11:33:57Z</time>
      </trkpt>
      <trkpt lat="48.43576" lon="2.71051">
        <ele>120.826797</ele>
        <time>2016-10-13T11:34:11Z</time>
      </trkpt>
      <trkpt lat="48.43597" lon="2.71024">
        <ele>123.827698</ele>
        <time>2016-10-13T11:34:26Z</time>
      </trkpt>
      <trkpt lat="48.4364" lon="2.70944">
        <ele>127.855804</ele>
        <time>2016-10-13T11:35:04Z</time>
      </trkpt>
      <trkpt lat="48.43653" lon="2.70928">
        <ele>128.281845</ele>
        <time>2016-10-13T11:35:16Z</time>
      </trkpt>
      <trkpt lat="48.43683" lon="2.70872">
        <ele>131.70137</ele>
        <time>2016-10-13T11:38:30Z</time>
      </trkpt>
      <trkpt lat="48.43683" lon="2.70865">
        <ele>132.369629</ele>
        <time>2016-10-13T11:38:37Z</time>
      </trkpt>
      <trkpt lat="48.43647" lon="2.70865">
        <ele>137.11438</ele>
        <time>2016-10-13T11:39:02Z</time>
      </trkpt>
      <trkpt lat="48.43635" lon="2.70878">
        <ele>138.154297</ele>
        <time>2016-10-13T11:39:12Z</time>
      </trkpt>
      <trkpt lat="48.43617" lon="2.70858">
        <ele>139.189835</ele>
        <time>2016-10-13T11:39:28Z</time>
      </trkpt>
      <trkpt lat="48.43616" lon="2.70841">
        <ele>138.974945</ele>
        <time>2016-10-13T11:39:39Z</time>
      </trkpt>
      <trkpt lat="48.43604" lon="2.70825">
        <ele>137.71727</ele>
        <time>2016-10-13T11:39:46Z</time>
      </trkpt>
      <trkpt lat="48.43603" lon="2.70805">
        <ele>137.227783</ele>
        <time>2016-10-13T11:39:54Z</time>
      </trkpt>
      <trkpt lat="48.43609" lon="2.70785">
        <ele>137.975006</ele>
        <time>2016-10-13T11:40:03Z</time>
      </trkpt>
      <trkpt lat="48.4365" lon="2.70741">
        <ele>139.495605</ele>
        <time>2016-10-13T11:40:32Z</time>
      </trkpt>
      <trkpt lat="48.43649" lon="2.70729">
        <ele>139.390808</ele>
        <time>2016-10-13T11:40:37Z</time>
      </trkpt>
      <trkpt lat="48.43637" lon="2.70721">
        <ele>139.675354</ele>
        <time>2016-10-13T11:40:46Z</time>
      </trkpt>
      <trkpt lat="48.43637" lon="2.70705">
        <ele>139.596146</ele>
        <time>2016-10-13T11:40:53Z</time>
      </trkpt>
      <trkpt lat="48.43616" lon="2.70687">
        <ele>138.699997</ele>
        <time>2016-10-13T11:41:08Z</time>
      </trkpt>
      <trkpt lat="48.43617" lon="2.70669">
        <ele>138.824997</ele>
        <time>2016-10-13T11:41:26Z</time>
      </trkpt>
      <trkpt lat="48.4363" lon="2.70649">
        <ele>139.906158</ele>
        <time>2016-10-13T11:41:38Z</time>
      </trkpt>
      <trkpt lat="48.43632" lon="2.70624">
        <ele>139.779724</ele>
        <time>2016-10-13T11:41:52Z</time>
      </trkpt>
      <trkpt lat="48.43642" lon="2.70596">
        <ele>139.136047</ele>
        <time>2016-10-13T11:42:07Z</time>
      </trkpt>
      <trkpt lat="48.43643" lon="2.70579">
        <ele>138.514496</ele>
        <time>2016-10-13T11:42:15Z</time>
      </trkpt>
      <trkpt lat="48.43669" lon="2.70562">
        <ele>137.477951</ele>
        <time>2016-10-13T11:42:30Z</time>
      </trkpt>
      <trkpt lat="48.43675" lon="2.70549">
        <ele>137.075607</ele>
        <time>2016-10-13T11:42:36Z</time>
      </trkpt>
      <trkpt lat="48.43696" lon="2.7054">
        <ele>135.514084</ele>
        <time>2016-10-13T11:42:51Z</time>
      </trkpt>
      <trkpt lat="48.43706" lon="2.70562">
        <ele>134.898346</ele>
        <time>2016-10-13T11:43:14Z</time>
      </trkpt>
      <trkpt lat="48.43721" lon="2.7058">
        <ele>133.92247</ele>
        <time>2016-10-13T11:43:20Z</time>
      </trkpt>
      <trkpt lat="48.43743" lon="2.70577">
        <ele>133.204758</ele>
        <time>2016-10-13T11:43:30Z</time>
      </trkpt>
      <trkpt lat="48.43778" lon="2.70588">
        <ele>129.876343</ele>
        <time>2016-10-13T11:43:51Z</time>
      </trkpt>
      <trkpt lat="48.43796" lon="2.70561">
        <ele>124.941513</ele>
        <time>2016-10-13T11:44:39Z</time>
      </trkpt>
      <trkpt lat="48.43802" lon="2.70527">
        <ele>122.923126</ele>
        <time>2016-10-13T11:45:02Z</time>
      </trkpt>
      <trkpt lat="48.43808" lon="2.70519">
        <ele>121.5261</ele>
        <time>2016-10-13T11:45:17Z</time>
      </trkpt>
      <trkpt lat="48.43798" lon="2.70487">
        <ele>119.8321</ele>
        <time>2016-10-13T11:45:48Z</time>
      </trkpt>
      <trkpt lat="48.43762" lon="2.70437">
        <ele>120.864624</ele>
        <time>2016-10-13T11:46:31Z</time>
      </trkpt>
      <trkpt lat="48.43755" lon="2.70435">
        <ele>122.210503</ele>
        <time>2016-10-13T11:46:38Z</time>
      </trkpt>
      <trkpt lat="48.43738" lon="2.70383">
        <ele>128.723251</ele>
        <time>2016-10-13T11:47:26Z</time>
      </trkpt>
      <trkpt lat="48.43748" lon="2.70354">
        <ele>130.838562</ele>
        <time>2016-10-13T11:47:58Z</time>
      </trkpt>
      <trkpt lat="48.43764" lon="2.70347">
        <ele>130.108002</ele>
        <time>2016-10-13T11:48:16Z</time>
      </trkpt>
      <trkpt lat="48.43791" lon="2.70309">
        <ele>130.056503</ele>
        <time>2016-10-13T11:48:59Z</time>
      </trkpt>
      <trkpt lat="48.43798" lon="2.70277">
        <ele>132.935806</ele>
        <time>2016-10-13T11:49:29Z</time>
      </trkpt>
      <trkpt lat="48.43824" lon="2.70271">
        <ele>129.790604</ele>
        <time>2016-10-13T11:49:46Z</time>
      </trkpt>
      <trkpt lat="48.43827" lon="2.70238">
        <ele>130.037003</ele>
        <time>2016-10-13T11:50:34Z</time>
      </trkpt>
      <trkpt lat="48.43821" lon="2.70236">
        <ele>130.452377</ele>
        <time>2016-10-13T11:50:50Z</time>
      </trkpt>
      <trkpt lat="48.43833" lon="2.70215">
        <ele>130.191406</ele>
        <time>2016-10-13T11:51:13Z</time>
      </trkpt>
      <trkpt lat="48.43843" lon="2.70169">
        <ele>127.245567</ele>
        <time>2016-10-13T11:51:55Z</time>
      </trkpt>
      <trkpt lat="48.4385" lon="2.7016">
        <ele>126.356331</ele>
        <time>2016-10-13T11:52:10Z</time>
      </trkpt>
      <trkpt lat="48.43855" lon="2.70165">
        <ele>127.304802</ele>
        <time>2016-10-13T11:52:34Z</time>
      </trkpt>
      <trkpt lat="48.43851" lon="2.70191">
        <ele>131.42865</ele>
        <time>2016-10-13T11:53:18Z</time>
      </trkpt>
      <trkpt lat="48.43861" lon="2.70178">
        <ele>127.728371</ele>
        <time>2016-10-13T11:53:42Z</time>
      </trkpt>
      <trkpt lat="48.43861" lon="2.70147">
        <ele>123.515076</ele>
        <time>2016-10-13T11:54:32Z</time>
      </trkpt>
      <trkpt lat="48.43854" lon="2.70134">
        <ele>122.350235</ele>
        <time>2016-10-13T11:54:56Z</time>
      </trkpt>
      <trkpt lat="48.43839" lon="2.70067">
        <ele>113.790016</ele>
        <time>2016-10-13T11:56:43Z</time>
      </trkpt>
      <trkpt lat="48.43828" lon="2.70059">
        <ele>115.201988</ele>
        <time>2016-10-13T11:57:16Z</time>
      </trkpt>
      <trkpt lat="48.43813" lon="2.7007">
        <ele>117.678001</ele>
        <time>2016-10-13T11:58:06Z</time>
      </trkpt>
      <trkpt lat="48.43783" lon="2.70154">
        <ele>127.139603</ele>
        <time>2016-10-13T11:58:59Z</time>
      </trkpt>
      <trkpt lat="48.43781" lon="2.70179">
        <ele>128.821472</ele>
        <time>2016-10-13T11:59:19Z</time>
      </trkpt>
      <trkpt lat="48.43758" lon="2.70209">
        <ele>131.121857</ele>
        <time>2016-10-13T12:00:39Z</time>
      </trkpt>
      <trkpt lat="48.43738" lon="2.70192">
        <ele>128.790649</ele>
        <time>2016-10-13T12:01:20Z</time>
      </trkpt>
      <trkpt lat="48.43736" lon="2.70163">
        <ele>129.262726</ele>
        <time>2016-10-13T12:01:37Z</time>
      </trkpt>
      <trkpt lat="48.43748" lon="2.70157">
        <ele>129.837769</ele>
        <time>2016-10-13T12:02:08Z</time>
      </trkpt>
      <trkpt lat="48.43763" lon="2.70105">
        <ele>130.329788</ele>
        <time>2016-10-13T12:02:33Z</time>
      </trkpt>
      <trkpt lat="48.43764" lon="2.70084">
        <ele>130.669693</ele>
        <time>2016-10-13T12:02:41Z</time>
      </trkpt>
      <trkpt lat="48.43783" lon="2.70034">
        <ele>124.748772</ele>
        <time>2016-10-13T12:03:16Z</time>
      </trkpt>
      <trkpt lat="48.43788" lon="2.70008">
        <ele>123.093468</ele>
        <time>2016-10-13T12:04:01Z</time>
      </trkpt>
      <trkpt lat="48.43794" lon="2.70007">
        <ele>122.211845</ele>
        <time>2016-10-13T12:04:06Z</time>
      </trkpt>
      <trkpt lat="48.43812" lon="2.69979">
        <ele>118.441696</ele>
        <time>2016-10-13T12:04:50Z</time>
      </trkpt>
      <trkpt lat="48.43813" lon="2.69961">
        <ele>117.021622</ele>
        <time>2016-10-13T12:05:02Z</time>
      </trkpt>
      <trkpt lat="48.43828" lon="2.69929">
        <ele>113.063148</ele>
        <time>2016-10-13T12:05:21Z</time>
      </trkpt>
      <trkpt lat="48.43855" lon="2.69912">
        <ele>109.71875</ele>
        <time>2016-10-13T12:05:39Z</time>
      </trkpt>
      <trkpt lat="48.43864" lon="2.69893">
        <ele>108.196648</ele>
        <time>2016-10-13T12:05:48Z</time>
      </trkpt>
      <trkpt lat="48.43861" lon="2.69853">
        <ele>108.108749</ele>
        <time>2016-10-13T12:06:01Z</time>
      </trkpt>
      <trkpt lat="48.4385" lon="2.69842">
        <ele>109.265778</ele>
        <time>2016-10-13T12:06:18Z</time>
      </trkpt>
      <trkpt lat="48.43849" lon="2.69832">
        <ele>109.258186</ele>
        <time>2016-10-13T12:06:34Z</time>
      </trkpt>
      <trkpt lat="48.43859" lon="2.69834">
        <ele>108.444344</ele>
        <time>2016-10-13T12:06:56Z</time>
      </trkpt>
      <trkpt lat="48.43849" lon="2.69827">
        <ele>109.194023</ele>
        <time>2016-10-13T12:07:17Z</time>
      </trkpt>
      <trkpt lat="48.43839" lon="2.69835">
        <ele>109.6642</ele>
        <time>2016-10-13T12:07:33Z</time>
      </trkpt>
      <trkpt lat="48.43831" lon="2.69811">
        <ele>109.407272</ele>
        <time>2016-10-13T12:07:43Z</time>
      </trkpt>
      <trkpt lat="48.4383" lon="2.69792">
        <ele>109.02375</ele>
        <time>2016-10-13T12:07:52Z</time>
      </trkpt>
      <trkpt lat="48.43847" lon="2.69754">
        <ele>109.583748</ele>
        <time>2016-10-13T12:08:14Z</time>
      </trkpt>
      <trkpt lat="48.43857" lon="2.69714">
        <ele>109.720001</ele>
        <time>2016-10-13T12:08:32Z</time>
      </trkpt>
      <trkpt lat="48.43855" lon="2.69704">
        <ele>109.98381</ele>
        <time>2016-10-13T12:08:36Z</time>
      </trkpt>
      <trkpt lat="48.43865" lon="2.69663">
        <ele>108.529999</ele>
        <time>2016-10-13T12:09:02Z</time>
      </trkpt>
      <trkpt lat="48.43864" lon="2.69635">
        <ele>108.735786</ele>
        <time>2016-10-13T12:09:13Z</time>
      </trkpt>
      <trkpt lat="48.43876" lon="2.69617">
        <ele>107.195549</ele>
        <time>2016-10-13T12:09:22Z</time>
      </trkpt>
      <trkpt lat="48.43876" lon="2.69592">
        <ele>107.297188</ele>
        <time>2016-10-13T12:09:50Z</time>
      </trkpt>
      <trkpt lat="48.43884" lon="2.6956">
        <ele>106.342201</ele>
        <time>2016-10-13T12:10:15Z</time>
      </trkpt>
      <trkpt lat="48.43893" lon="2.69553">
        <ele>105.440804</ele>
        <time>2016-10-13T12:10:25Z</time>
      </trkpt>
      <trkpt lat="48.43889" lon="2.69535">
        <ele>105.961998</ele>
        <time>2016-10-13T12:10:31Z</time>
      </trkpt>
      <trkpt lat="48.43892" lon="2.69502">
        <ele>106.857475</ele>
        <time>2016-10-13T12:10:42Z</time>
      </trkpt>
      <trkpt lat="48.4388" lon="2.69489">
        <ele>107.981499</ele>
        <time>2016-10-13T12:10:50Z</time>
      </trkpt>
      <trkpt lat="48.43878" lon="2.69467">
        <ele>108.687172</ele>
        <time>2016-10-13T12:10:59Z</time>
      </trkpt>
      <trkpt lat="48.43869" lon="2.69447">
        <ele>109.098999</ele>
        <time>2016-10-13T12:11:07Z</time>
      </trkpt>
      <trkpt lat="48.43872" lon="2.6944">
        <ele>109.15638</ele>
        <time>2016-10-13T12:11:11Z</time>
      </trkpt>
      <trkpt lat="48.43866" lon="2.69402">
        <ele>109.64196</ele>
        <time>2016-10-13T12:11:30Z</time>
      </trkpt>
      <trkpt lat="48.43872" lon="2.69392">
        <ele>109.615875</ele>
        <time>2016-10-13T12:11:47Z</time>
      </trkpt>
      <trkpt lat="48.43887" lon="2.69393">
        <ele>109.305504</ele>
        <time>2016-10-13T12:12:20Z</time>
      </trkpt>
      <trkpt lat="48.43896" lon="2.69385">
        <ele>108.906349</ele>
        <time>2016-10-13T12:12:29Z</time>
      </trkpt>
      <trkpt lat="48.43891" lon="2.69376">
        <ele>108.416046</ele>
        <time>2016-10-13T12:12:43Z</time>
      </trkpt>
      <trkpt lat="48.43894" lon="2.69361">
        <ele>107.389702</ele>
        <time>2016-10-13T12:12:51Z</time>
      </trkpt>
      <trkpt lat="48.43901" lon="2.69355">
        <ele>106.974747</ele>
        <time>2016-10-13T12:12:59Z</time>
      </trkpt>
      <trkpt lat="48.43902" lon="2.69331">
        <ele>105.601509</ele>
        <time>2016-10-13T12:13:20Z</time>
      </trkpt>
      <trkpt lat="48.43915" lon="2.69311">
        <ele>103.028313</ele>
        <time>2016-10-13T12:13:40Z</time>
      </trkpt>
      <trkpt lat="48.4392" lon="2.69283">
        <ele>100.568748</ele>
        <time>2016-10-13T12:13:53Z</time>
      </trkpt>
      <trkpt lat="48.4393" lon="2.69274">
        <ele>99.801628</ele>
        <time>2016-10-13T12:14:01Z</time>
      </trkpt>
      <trkpt lat="48.43935" lon="2.69251">
        <ele>98.436699</ele>
        <time>2016-10-13T12:14:18Z</time>
      </trkpt>
      <trkpt lat="48.4393" lon="2.69235">
        <ele>96.748741</ele>
        <time>2016-10-13T12:14:27Z</time>
      </trkpt>
      <trkpt lat="48.43928" lon="2.69193">
        <ele>92.640091</ele>
        <time>2016-10-13T12:14:40Z</time>
      </trkpt>
      <trkpt lat="48.43933" lon="2.69157">
        <ele>90.108849</ele>
        <time>2016-10-13T12:14:48Z</time>
      </trkpt>
      <trkpt lat="48.43979" lon="2.69123">
        <ele>84.9888</ele>
        <time>2016-10-13T12:15:03Z</time>
      </trkpt>
      <trkpt lat="48.43982" lon="2.69107">
        <ele>84.605476</ele>
        <time>2016-10-13T12:15:06Z</time>
      </trkpt>
      <trkpt lat="48.43971" lon="2.69055">
        <ele>84.531998</ele>
        <time>2016-10-13T12:15:23Z</time>
      </trkpt>
      <trkpt lat="48.43974" lon="2.69046">
        <ele>84.419998</ele>
        <time>2016-10-13T12:15:26Z</time>
      </trkpt>
      <trkpt lat="48.43997" lon="2.69027">
        <ele>83.966591</ele>
        <time>2016-10-13T12:15:41Z</time>
      </trkpt>
      <trkpt lat="48.43983" lon="2.68997">
        <ele>84.209999</ele>
        <time>2016-10-13T12:15:55Z</time>
      </trkpt>
      <trkpt lat="48.43969" lon="2.6898">
        <ele>84.519997</ele>
        <time>2016-10-13T12:16:03Z</time>
      </trkpt>
      <trkpt lat="48.43954" lon="2.68976">
        <ele>84.870003</ele>
        <time>2016-10-13T12:16:10Z</time>
      </trkpt>
      <trkpt lat="48.43941" lon="2.68962">
        <ele>85.144997</ele>
        <time>2016-10-13T12:16:17Z</time>
      </trkpt>
      <trkpt lat="48.43937" lon="2.68874">
        <ele>85.094017</ele>
        <time>2016-10-13T12:16:40Z</time>
      </trkpt>
      <trkpt lat="48.43949" lon="2.6885">
        <ele>84.999748</ele>
        <time>2016-10-13T12:16:46Z</time>
      </trkpt>
      <trkpt lat="48.43983" lon="2.68808">
        <ele>85.4758</ele>
        <time>2016-10-13T12:16:59Z</time>
      </trkpt>
      <trkpt lat="48.43979" lon="2.68769">
        <ele>85.80072</ele>
        <time>2016-10-13T12:17:08Z</time>
      </trkpt>
      <trkpt lat="48.4399" lon="2.68715">
        <ele>86.821602</ele>
        <time>2016-10-13T12:17:28Z</time>
      </trkpt>
      <trkpt lat="48.43999" lon="2.68707">
        <ele>87.530815</ele>
        <time>2016-10-13T12:17:35Z</time>
      </trkpt>
      <trkpt lat="48.44027" lon="2.687">
        <ele>89.486176</ele>
        <time>2016-10-13T12:17:57Z</time>
      </trkpt>
      <trkpt lat="48.44037" lon="2.68706">
        <ele>90.0009</ele>
        <time>2016-10-13T12:18:04Z</time>
      </trkpt>
      <trkpt lat="48.44045" lon="2.68699">
        <ele>91.191322</ele>
        <time>2016-10-13T12:18:10Z</time>
      </trkpt>
      <trkpt lat="48.44071" lon="2.68654">
        <ele>95.896034</ele>
        <time>2016-10-13T12:18:41Z</time>
      </trkpt>
      <trkpt lat="48.44075" lon="2.68623">
        <ele>97.455002</ele>
        <time>2016-10-13T12:18:57Z</time>
      </trkpt>
      <trkpt lat="48.44089" lon="2.68604">
        <ele>99.756721</ele>
        <time>2016-10-13T12:19:12Z</time>
      </trkpt>
      <trkpt lat="48.44103" lon="2.68573">
        <ele>101.362274</ele>
        <time>2016-10-13T12:19:30Z</time>
      </trkpt>
      <trkpt lat="48.4411" lon="2.68569">
        <ele>101.979279</ele>
        <time>2016-10-13T12:19:35Z</time>
      </trkpt>
      <trkpt lat="48.44121" lon="2.68537">
        <ele>105.354759</ele>
        <time>2016-10-13T12:19:56Z</time>
      </trkpt>
      <trkpt lat="48.4412" lon="2.68529">
        <ele>105.977501</ele>
        <time>2016-10-13T12:20:04Z</time>
      </trkpt>
      <trkpt lat="48.4413" lon="2.68502">
        <ele>108.179298</ele>
        <time>2016-10-13T12:20:38Z</time>
      </trkpt>
      <trkpt lat="48.4413" lon="2.68489">
        <ele>108.543465</ele>
        <time>2016-10-13T12:20:48Z</time>
      </trkpt>
      <trkpt lat="48.44122" lon="2.68467">
        <ele>108.72757</ele>
        <time>2016-10-13T12:21:01Z</time>
      </trkpt>
      <trkpt lat="48.44129" lon="2.68453">
        <ele>109.676987</ele>
        <time>2016-10-13T12:21:09Z</time>
      </trkpt>
      <trkpt lat="48.44128" lon="2.68395">
        <ele>108.540627</ele>
        <time>2016-10-13T12:21:35Z</time>
      </trkpt>
      <trkpt lat="48.44109" lon="2.6834">
        <ele>108.459999</ele>
        <time>2016-10-13T12:21:57Z</time>
      </trkpt>
      <trkpt lat="48.44113" lon="2.68321">
        <ele>108.370003</ele>
        <time>2016-10-13T12:22:06Z</time>
      </trkpt>
      <trkpt lat="48.44102" lon="2.68289">
        <ele>109.986252</ele>
        <time>2016-10-13T12:22:21Z</time>
      </trkpt>
      <trkpt lat="48.44107" lon="2.68284">
        <ele>110.764999</ele>
        <time>2016-10-13T12:23:26Z</time>
      </trkpt>
      <trkpt lat="48.44076" lon="2.68256">
        <ele>107.072449</ele>
        <time>2016-10-13T12:24:19Z</time>
      </trkpt>
      <trkpt lat="48.44073" lon="2.68244">
        <ele>106.180298</ele>
        <time>2016-10-13T12:24:32Z</time>
      </trkpt>
      <trkpt lat="48.4406" lon="2.68235">
        <ele>102.4188</ele>
        <time>2016-10-13T12:24:56Z</time>
      </trkpt>
      <trkpt lat="48.44048" lon="2.68238">
        <ele>99.825127</ele>
        <time>2016-10-13T12:25:09Z</time>
      </trkpt>
      <trkpt lat="48.44035" lon="2.68226">
        <ele>96.905998</ele>
        <time>2016-10-13T12:25:15Z</time>
      </trkpt>
      <trkpt lat="48.44025" lon="2.68201">
        <ele>95.139221</ele>
        <time>2016-10-13T12:25:22Z</time>
      </trkpt>
      <trkpt lat="48.44039" lon="2.68192">
        <ele>95.771545</ele>
        <time>2016-10-13T12:25:36Z</time>
      </trkpt>
      <trkpt lat="48.44057" lon="2.68158">
        <ele>97.407249</ele>
        <time>2016-10-13T12:25:56Z</time>
      </trkpt>
      <trkpt lat="48.44085" lon="2.68084">
        <ele>96.965088</ele>
        <time>2016-10-13T12:26:28Z</time>
      </trkpt>
      <trkpt lat="48.44094" lon="2.68071">
        <ele>98.587997</ele>
        <time>2016-10-13T12:26:36Z</time>
      </trkpt>
      <trkpt lat="48.44109" lon="2.68066">
        <ele>101.141953</ele>
        <time>2016-10-13T12:26:48Z</time>
      </trkpt>
      <trkpt lat="48.44112" lon="2.68047">
        <ele>101.225159</ele>
        <time>2016-10-13T12:26:56Z</time>
      </trkpt>
      <trkpt lat="48.44105" lon="2.68009">
        <ele>100.768349</ele>
        <time>2016-10-13T12:27:08Z</time>
      </trkpt>
      <trkpt lat="48.44109" lon="2.67907">
        <ele>103.551247</ele>
        <time>2016-10-13T12:28:54Z</time>
      </trkpt>
      <trkpt lat="48.44122" lon="2.67882">
        <ele>104.295654</ele>
        <time>2016-10-13T12:29:06Z</time>
      </trkpt>
      <trkpt lat="48.44122" lon="2.67856">
        <ele>103.323769</ele>
        <time>2016-10-13T12:29:14Z</time>
      </trkpt>
      <trkpt lat="48.44142" lon="2.67804">
        <ele>104.142502</ele>
        <time>2016-10-13T12:29:28Z</time>
      </trkpt>
      <trkpt lat="48.44137" lon="2.67765">
        <ele>102.066254</ele>
        <time>2016-10-13T12:29:37Z</time>
      </trkpt>
      <trkpt lat="48.44118" lon="2.67719">
        <ele>99.657501</ele>
        <time>2016-10-13T12:29:45Z</time>
      </trkpt>
      <trkpt lat="48.4409" lon="2.67689">
        <ele>98.860001</ele>
        <time>2016-10-13T12:29:53Z</time>
      </trkpt>
      <trkpt lat="48.44082" lon="2.67691">
        <ele>98.480003</ele>
        <time>2016-10-13T12:29:56Z</time>
      </trkpt>
      <trkpt lat="48.44035" lon="2.67669">
        <ele>98.5793</ele>
        <time>2016-10-13T12:30:16Z</time>
      </trkpt>
      <trkpt lat="48.43978" lon="2.67665">
        <ele>95.766098</ele>
        <time>2016-10-13T12:30:50Z</time>
      </trkpt>
      <trkpt lat="48.4393" lon="2.67644">
        <ele>92.9608</ele>
        <time>2016-10-13T12:31:08Z</time>
      </trkpt>
      <trkpt lat="48.43929" lon="2.67633">
        <ele>92.978088</ele>
        <time>2016-10-13T12:31:13Z</time>
      </trkpt>
      <trkpt lat="48.43934" lon="2.67619">
        <ele>93.434998</ele>
        <time>2016-10-13T12:31:19Z</time>
      </trkpt>
      <trkpt lat="48.43953" lon="2.67466">
        <ele>96.451805</ele>
        <time>2016-10-13T12:32:05Z</time>
      </trkpt>
      <trkpt lat="48.43997" lon="2.67451">
        <ele>99.915001</ele>
        <time>2016-10-13T12:32:31Z</time>
      </trkpt>
      <trkpt lat="48.44046" lon="2.67411">
        <ele>104.979942</ele>
        <time>2016-10-13T12:33:07Z</time>
      </trkpt>
      <trkpt lat="48.44062" lon="2.67412">
        <ele>108.098747</ele>
        <time>2016-10-13T12:33:19Z</time>
      </trkpt>
      <trkpt lat="48.44095" lon="2.67392">
        <ele>114.321228</ele>
        <time>2016-10-13T12:34:03Z</time>
      </trkpt>
      <trkpt lat="48.44102" lon="2.67379">
        <ele>115.13105</ele>
        <time>2016-10-13T12:34:16Z</time>
      </trkpt>
      <trkpt lat="48.44103" lon="2.67363">
        <ele>114.260719</ele>
        <time>2016-10-13T12:34:29Z</time>
      </trkpt>
      <trkpt lat="48.44114" lon="2.67354">
        <ele>117.598999</ele>
        <time>2016-10-13T12:34:42Z</time>
      </trkpt>
      <trkpt lat="48.44135" lon="2.67324">
        <ele>123.82972</ele>
        <time>2016-10-13T12:35:15Z</time>
      </trkpt>
      <trkpt lat="48.44157" lon="2.67307">
        <ele>125.804375</ele>
        <time>2016-10-13T12:35:41Z</time>
      </trkpt>
      <trkpt lat="48.44167" lon="2.67288">
        <ele>126.483528</ele>
        <time>2016-10-13T12:36:07Z</time>
      </trkpt>
      <trkpt lat="48.44187" lon="2.67281">
        <ele>128.697327</ele>
        <time>2016-10-13T12:37:02Z</time>
      </trkpt>
      <trkpt lat="48.44202" lon="2.67262">
        <ele>131.639511</ele>
        <time>2016-10-13T12:39:08Z</time>
      </trkpt>
      <trkpt lat="48.44224" lon="2.67203">
        <ele>133.029678</ele>
        <time>2016-10-13T12:39:38Z</time>
      </trkpt>
      <trkpt lat="48.44251" lon="2.67178">
        <ele>135.699203</ele>
        <time>2016-10-13T12:40:01Z</time>
      </trkpt>
      <trkpt lat="48.4426" lon="2.67156">
        <ele>136.104279</ele>
        <time>2016-10-13T12:40:11Z</time>
      </trkpt>
      <trkpt lat="48.44251" lon="2.67135">
        <ele>136.543121</ele>
        <time>2016-10-13T12:40:21Z</time>
      </trkpt>
      <trkpt lat="48.44235" lon="2.67137">
        <ele>136.619202</ele>
        <time>2016-10-13T12:40:32Z</time>
      </trkpt>
      <trkpt lat="48.44218" lon="2.6715">
        <ele>136.406937</ele>
        <time>2016-10-13T12:40:40Z</time>
      </trkpt>
      <trkpt lat="48.44206" lon="2.67153">
        <ele>136.57782</ele>
        <time>2016-10-13T12:40:45Z</time>
      </trkpt>
      <trkpt lat="48.44177" lon="2.67181">
        <ele>136.389374</ele>
        <time>2016-10-13T12:41:01Z</time>
      </trkpt>
      <trkpt lat="48.44184" lon="2.67237">
        <ele>133.403824</ele>
        <time>2016-10-13T12:41:32Z</time>
      </trkpt>
      <trkpt lat="48.44179" lon="2.67205">
        <ele>135.613281</ele>
        <time>2016-10-13T12:41:51Z</time>
      </trkpt>
      <trkpt lat="48.44164" lon="2.67203">
        <ele>135.535156</ele>
        <time>2016-10-13T12:42:04Z</time>
      </trkpt>
      <trkpt lat="48.44158" lon="2.67214">
        <ele>135.239243</ele>
        <time>2016-10-13T12:42:30Z</time>
      </trkpt>
      <trkpt lat="48.44143" lon="2.67215">
        <ele>135.089127</ele>
        <time>2016-10-13T12:42:57Z</time>
      </trkpt>
      <trkpt lat="48.4414" lon="2.67226">
        <ele>135.013168</ele>
        <time>2016-10-13T12:43:06Z</time>
      </trkpt>
      <trkpt lat="48.44129" lon="2.67226">
        <ele>134.33963</ele>
        <time>2016-10-13T12:43:26Z</time>
      </trkpt>
      <trkpt lat="48.44131" lon="2.67189">
        <ele>134.512543</ele>
        <time>2016-10-13T12:43:50Z</time>
      </trkpt>
      <trkpt lat="48.44153" lon="2.67163">
        <ele>135.867752</ele>
        <time>2016-10-13T12:44:37Z</time>
      </trkpt>
      <trkpt lat="48.44143" lon="2.67161">
        <ele>135.469406</ele>
        <time>2016-10-13T12:45:06Z</time>
      </trkpt>
      <trkpt lat="48.44133" lon="2.67134">
        <ele>135.011993</ele>
        <time>2016-10-13T12:46:22Z</time>
      </trkpt>
      <trkpt lat="48.44131" lon="2.67146">
        <ele>134.166245</ele>
        <time>2016-10-13T12:46:57Z</time>
      </trkpt>
      <trkpt lat="48.44125" lon="2.67147">
        <ele>132.173538</ele>
        <time>2016-10-13T12:47:10Z</time>
      </trkpt>
      <trkpt lat="48.44116" lon="2.67119">
        <ele>128.220322</ele>
        <time>2016-10-13T12:48:11Z</time>
      </trkpt>
      <trkpt lat="48.44122" lon="2.671">
        <ele>130.514694</ele>
        <time>2016-10-13T12:48:20Z</time>
      </trkpt>
      <trkpt lat="48.44126" lon="2.67058">
        <ele>130.462402</ele>
        <time>2016-10-13T12:48:37Z</time>
      </trkpt>
      <trkpt lat="48.4414" lon="2.66986">
        <ele>132.223129</ele>
        <time>2016-10-13T12:49:03Z</time>
      </trkpt>
      <trkpt lat="48.44126" lon="2.66925">
        <ele>133.634995</ele>
        <time>2016-10-13T12:49:18Z</time>
      </trkpt>
      <trkpt lat="48.44136" lon="2.66875">
        <ele>135.287064</ele>
        <time>2016-10-13T12:49:33Z</time>
      </trkpt>
      <trkpt lat="48.4415" lon="2.66863">
        <ele>135.623199</ele>
        <time>2016-10-13T12:49:55Z</time>
      </trkpt>
      <trkpt lat="48.44155" lon="2.66842">
        <ele>135.855698</ele>
        <time>2016-10-13T12:50:01Z</time>
      </trkpt>
      <trkpt lat="48.44151" lon="2.66551">
        <ele>131.201248</ele>
        <time>2016-10-13T12:50:40Z</time>
      </trkpt>
      <trkpt lat="48.44153" lon="2.66497">
        <ele>128.701248</ele>
        <time>2016-10-13T12:50:44Z</time>
      </trkpt>
      <trkpt lat="48.44178" lon="2.6627">
        <ele>112.079926</ele>
        <time>2016-10-13T12:51:01Z</time>
      </trkpt>
      <trkpt lat="48.44189" lon="2.66266">
        <ele>114.093498</ele>
        <time>2016-10-13T12:51:10Z</time>
      </trkpt>
      <trkpt lat="48.44221" lon="2.66186">
        <ele>115.461128</ele>
        <time>2016-10-13T12:51:38Z</time>
      </trkpt>
      <trkpt lat="48.44232" lon="2.66115">
        <ele>113.304047</ele>
        <time>2016-10-13T12:51:57Z</time>
      </trkpt>
      <trkpt lat="48.44243" lon="2.66072">
        <ele>113.923698</ele>
        <time>2016-10-13T12:52:12Z</time>
      </trkpt>
      <trkpt lat="48.44269" lon="2.66039">
        <ele>115.459099</ele>
        <time>2016-10-13T12:52:30Z</time>
      </trkpt>
      <trkpt lat="48.44296" lon="2.66025">
        <ele>117.035599</ele>
        <time>2016-10-13T12:52:42Z</time>
      </trkpt>
      <trkpt lat="48.44318" lon="2.65999">
        <ele>119.403748</ele>
        <time>2016-10-13T12:53:04Z</time>
      </trkpt>
      <trkpt lat="48.44342" lon="2.65999">
        <ele>124.275002</ele>
        <time>2016-10-13T12:54:11Z</time>
      </trkpt>
      <trkpt lat="48.44356" lon="2.66019">
        <ele>126.099998</ele>
        <time>2016-10-13T12:54:31Z</time>
      </trkpt>
      <trkpt lat="48.4436" lon="2.66038">
        <ele>126.592751</ele>
        <time>2016-10-13T12:54:46Z</time>
      </trkpt>
      <trkpt lat="48.44355" lon="2.66055">
        <ele>126.012627</ele>
        <time>2016-10-13T12:55:03Z</time>
      </trkpt>
      <trkpt lat="48.44362" lon="2.66083">
        <ele>126.336998</ele>
        <time>2016-10-13T12:55:21Z</time>
      </trkpt>
      <trkpt lat="48.44353" lon="2.66114">
        <ele>129.102493</ele>
        <time>2016-10-13T12:55:36Z</time>
      </trkpt>
      <trkpt lat="48.44353" lon="2.66133">
        <ele>130.725006</ele>
        <time>2016-10-13T12:55:46Z</time>
      </trkpt>
      <trkpt lat="48.44347" lon="2.66155">
        <ele>132.580002</ele>
        <time>2016-10-13T12:56:04Z</time>
      </trkpt>
      <trkpt lat="48.44375" lon="2.66256">
        <ele>134.611404</ele>
        <time>2016-10-13T12:56:37Z</time>
      </trkpt>
      <trkpt lat="48.44394" lon="2.6628">
        <ele>134.769089</ele>
        <time>2016-10-13T12:56:46Z</time>
      </trkpt>
      <trkpt lat="48.44408" lon="2.66311">
        <ele>135.464996</ele>
        <time>2016-10-13T12:57:00Z</time>
      </trkpt>
      <trkpt lat="48.44455" lon="2.66221">
        <ele>135.164993</ele>
        <time>2016-10-13T12:57:30Z</time>
      </trkpt>
      <trkpt lat="48.44474" lon="2.66199">
        <ele>135.398926</ele>
        <time>2016-10-13T12:57:38Z</time>
      </trkpt>
      <trkpt lat="48.44514" lon="2.66176">
        <ele>135.647095</ele>
        <time>2016-10-13T12:57:51Z</time>
      </trkpt>
      <trkpt lat="48.4452" lon="2.66166">
        <ele>135.655182</ele>
        <time>2016-10-13T12:57:55Z</time>
      </trkpt>
      <trkpt lat="48.44512" lon="2.66147">
        <ele>135.343353</ele>
        <time>2016-10-13T12:58:01Z</time>
      </trkpt>
      <trkpt lat="48.44487" lon="2.66115">
        <ele>135</ele>
        <time>2016-10-13T12:58:11Z</time>
      </trkpt>
      <trkpt lat="48.44492" lon="2.66015">
        <ele>133.16156</ele>
        <time>2016-10-13T12:58:36Z</time>
      </trkpt>
      <trkpt lat="48.44486" lon="2.65979">
        <ele>132.805344</ele>
        <time>2016-10-13T12:58:47Z</time>
      </trkpt>
      <trkpt lat="48.4447" lon="2.65956">
        <ele>132.78392</ele>
        <time>2016-10-13T12:58:54Z</time>
      </trkpt>
      <trkpt lat="48.44465" lon="2.65926">
        <ele>132.296982</ele>
        <time>2016-10-13T12:59:02Z</time>
      </trkpt>
      <trkpt lat="48.44455" lon="2.65911">
        <ele>132.321915</ele>
        <time>2016-10-13T12:59:13Z</time>
      </trkpt>
      <trkpt lat="48.4445" lon="2.6591">
        <ele>132.472504</ele>
        <time>2016-10-13T12:59:32Z</time>
      </trkpt>
      <trkpt lat="48.44461" lon="2.65904">
        <ele>132.00325</ele>
        <time>2016-10-13T12:59:57Z</time>
      </trkpt>
      <trkpt lat="48.4446" lon="2.65879">
        <ele>131.594513</ele>
        <time>2016-10-13T13:01:11Z</time>
      </trkpt>
      <trkpt lat="48.44469" lon="2.65868">
        <ele>131.190002</ele>
        <time>2016-10-13T13:03:45Z</time>
      </trkpt>
      <trkpt lat="48.44478" lon="2.65873">
        <ele>130.809998</ele>
        <time>2016-10-13T13:03:52Z</time>
      </trkpt>
      <trkpt lat="48.44487" lon="2.65868">
        <ele>130.410004</ele>
        <time>2016-10-13T13:04:08Z</time>
      </trkpt>
      <trkpt lat="48.44498" lon="2.65851">
        <ele>129.960129</ele>
        <time>2016-10-13T13:04:28Z</time>
      </trkpt>
      <trkpt lat="48.44497" lon="2.6582">
        <ele>130.0159</ele>
        <time>2016-10-13T13:04:38Z</time>
      </trkpt>
      <trkpt lat="48.44506" lon="2.6581">
        <ele>130.297852</ele>
        <time>2016-10-13T13:04:45Z</time>
      </trkpt>
      <trkpt lat="48.44512" lon="2.65773">
        <ele>131.895706</ele>
        <time>2016-10-13T13:04:55Z</time>
      </trkpt>
      <trkpt lat="48.4453" lon="2.65722">
        <ele>132.754868</ele>
        <time>2016-10-13T13:05:09Z</time>
      </trkpt>
      <trkpt lat="48.44535" lon="2.65686">
        <ele>132.265808</ele>
        <time>2016-10-13T13:05:17Z</time>
      </trkpt>
      <trkpt lat="48.44568" lon="2.65589">
        <ele>129.449448</ele>
        <time>2016-10-13T13:05:41Z</time>
      </trkpt>
      <trkpt lat="48.44567" lon="2.65571">
        <ele>129.842606</ele>
        <time>2016-10-13T13:05:45Z</time>
      </trkpt>
      <trkpt lat="48.44606" lon="2.65527">
        <ele>124.927948</ele>
        <time>2016-10-13T13:06:02Z</time>
      </trkpt>
      <trkpt lat="48.44606" lon="2.6551">
        <ele>124.526802</ele>
        <time>2016-10-13T13:06:08Z</time>
      </trkpt>
      <trkpt lat="48.44575" lon="2.65497">
        <ele>127.9533</ele>
        <time>2016-10-13T13:06:23Z</time>
      </trkpt>
      <trkpt lat="48.44566" lon="2.65487">
        <ele>128.335312</ele>
        <time>2016-10-13T13:06:45Z</time>
      </trkpt>
      <trkpt lat="48.44559" lon="2.65488">
        <ele>129.01178</ele>
        <time>2016-10-13T13:07:15Z</time>
      </trkpt>
      <trkpt lat="48.44557" lon="2.65478">
        <ele>128.805237</ele>
        <time>2016-10-13T13:07:27Z</time>
      </trkpt>
      <trkpt lat="48.44551" lon="2.65475">
        <ele>129.179337</ele>
        <time>2016-10-13T13:07:47Z</time>
      </trkpt>
      <trkpt lat="48.44552" lon="2.65463">
        <ele>127.114891</ele>
        <time>2016-10-13T13:08:23Z</time>
      </trkpt>
      <trkpt lat="48.44543" lon="2.65467">
        <ele>128.696152</ele>
        <time>2016-10-13T13:08:39Z</time>
      </trkpt>
      <trkpt lat="48.44546" lon="2.65446">
        <ele>124.67041</ele>
        <time>2016-10-13T13:09:25Z</time>
      </trkpt>
      <trkpt lat="48.4454" lon="2.65444">
        <ele>124.154999</ele>
        <time>2016-10-13T13:09:40Z</time>
      </trkpt>
      <trkpt lat="48.44532" lon="2.65424">
        <ele>119.555</ele>
        <time>2016-10-13T13:10:41Z</time>
      </trkpt>
      <trkpt lat="48.44512" lon="2.65401">
        <ele>112.462799</ele>
        <time>2016-10-13T13:11:13Z</time>
      </trkpt>
      <trkpt lat="48.44504" lon="2.65406">
        <ele>111.915802</ele>
        <time>2016-10-13T13:11:22Z</time>
      </trkpt>
      <trkpt lat="48.44496" lon="2.65395">
        <ele>109.818535</ele>
        <time>2016-10-13T13:11:45Z</time>
      </trkpt>
      <trkpt lat="48.4449" lon="2.65347">
        <ele>104.309525</ele>
        <time>2016-10-13T13:12:01Z</time>
      </trkpt>
      <trkpt lat="48.44493" lon="2.65338">
        <ele>103.175621</ele>
        <time>2016-10-13T13:12:09Z</time>
      </trkpt>
      <trkpt lat="48.4449" lon="2.65316">
        <ele>102.714844</ele>
        <time>2016-10-13T13:12:15Z</time>
      </trkpt>
      <trkpt lat="48.44464" lon="2.65286">
        <ele>100.777191</ele>
        <time>2016-10-13T13:12:29Z</time>
      </trkpt>
      <trkpt lat="48.44442" lon="2.65249">
        <ele>98.843811</ele>
        <time>2016-10-13T13:12:46Z</time>
      </trkpt>
      <trkpt lat="48.44379" lon="2.65179">
        <ele>94.01606</ele>
        <time>2016-10-13T13:13:14Z</time>
      </trkpt>
      <trkpt lat="48.44386" lon="2.6515">
        <ele>94.15612</ele>
        <time>2016-10-13T13:13:21Z</time>
      </trkpt>
      <trkpt lat="48.44401" lon="2.64993">
        <ele>93.660004</ele>
        <time>2016-10-13T13:13:49Z</time>
      </trkpt>
      <trkpt lat="48.44437" lon="2.64887">
        <ele>96.412498</ele>
        <time>2016-10-13T13:14:09Z</time>
      </trkpt>
      <trkpt lat="48.44442" lon="2.64852">
        <ele>96.164551</ele>
        <time>2016-10-13T13:14:16Z</time>
      </trkpt>
      <trkpt lat="48.44441" lon="2.64732">
        <ele>95.15976</ele>
        <time>2016-10-13T13:14:34Z</time>
      </trkpt>
      <trkpt lat="48.44469" lon="2.64649">
        <ele>99.099998</ele>
        <time>2016-10-13T13:14:53Z</time>
      </trkpt>
      <trkpt lat="48.44507" lon="2.64448">
        <ele>94.460251</ele>
        <time>2016-10-13T13:15:26Z</time>
      </trkpt>
      <trkpt lat="48.44537" lon="2.64385">
        <ele>93.111023</ele>
        <time>2016-10-13T13:15:37Z</time>
      </trkpt>
      <trkpt lat="48.44543" lon="2.64324">
        <ele>90.90831</ele>
        <time>2016-10-13T13:15:45Z</time>
      </trkpt>
      <trkpt lat="48.44541" lon="2.6428">
        <ele>90.698502</ele>
        <time>2016-10-13T13:15:50Z</time>
      </trkpt>
      <trkpt lat="48.44548" lon="2.64238">
        <ele>91.237663</ele>
        <time>2016-10-13T13:15:55Z</time>
      </trkpt>
      <trkpt lat="48.44544" lon="2.64183">
        <ele>89.764816</ele>
        <time>2016-10-13T13:16:01Z</time>
      </trkpt>
      <trkpt lat="48.44595" lon="2.63932">
        <ele>89.359665</ele>
        <time>2016-10-13T13:16:30Z</time>
      </trkpt>
      <trkpt lat="48.4461" lon="2.63828">
        <ele>86.626251</ele>
        <time>2016-10-13T13:16:44Z</time>
      </trkpt>
      <trkpt lat="48.44609" lon="2.63806">
        <ele>86.298752</ele>
        <time>2016-10-13T13:16:47Z</time>
      </trkpt>
      <trkpt lat="48.44586" lon="2.63745">
        <ele>85.809052</ele>
        <time>2016-10-13T13:16:57Z</time>
      </trkpt>
      <trkpt lat="48.44562" lon="2.63749">
        <ele>84.999809</ele>
        <time>2016-10-13T13:17:02Z</time>
      </trkpt>
      <trkpt lat="48.44531" lon="2.63744">
        <ele>84.388748</ele>
        <time>2016-10-13T13:17:10Z</time>
      </trkpt>
      <trkpt lat="48.44528" lon="2.63749">
        <ele>84.471252</ele>
        <time>2016-10-13T13:17:14Z</time>
      </trkpt>
      <trkpt lat="48.44519" lon="2.63733">
        <ele>84.231247</ele>
        <time>2016-10-13T13:17:19Z</time>
      </trkpt>
      <trkpt lat="48.44527" lon="2.63672">
        <ele>84</ele>
        <time>2016-10-13T13:17:31Z</time>
      </trkpt>
      <trkpt lat="48.44524" lon="2.63654">
        <ele>84</ele>
        <time>2016-10-13T13:17:34Z</time>
      </trkpt>
      <trkpt lat="48.44437" lon="2.63432">
        <ele>85</ele>
        <time>2016-10-13T13:18:17Z</time>
      </trkpt>
      <trkpt lat="48.44411" lon="2.63309">
        <ele>85</ele>
        <time>2016-10-13T13:18:39Z</time>
      </trkpt>
      <trkpt lat="48.444" lon="2.63281">
        <ele>85</ele>
        <time>2016-10-13T13:18:44Z</time>
      </trkpt>
      <trkpt lat="48.44381" lon="2.63189">
        <ele>85</ele>
        <time>2016-10-13T13:18:59Z</time>
      </trkpt>
      <trkpt lat="48.44342" lon="2.63084">
        <ele>84.791199</ele>
        <time>2016-10-13T13:19:16Z</time>
      </trkpt>
      <trkpt lat="48.44278" lon="2.62973">
        <ele>84.022499</ele>
        <time>2016-10-13T13:19:39Z</time>
      </trkpt>
      <trkpt lat="48.44252" lon="2.62914">
        <ele>83.724998</ele>
        <time>2016-10-13T13:19:50Z</time>
      </trkpt>
      <trkpt lat="48.44224" lon="2.62806">
        <ele>82.118523</ele>
        <time>2016-10-13T13:20:08Z</time>
      </trkpt>
      <trkpt lat="48.44113" lon="2.62479">
        <ele>82.696251</ele>
        <time>2016-10-13T13:21:04Z</time>
      </trkpt>
      <trkpt lat="48.44103" lon="2.62437">
        <ele>82.078751</ele>
        <time>2016-10-13T13:21:11Z</time>
      </trkpt>
      <trkpt lat="48.44104" lon="2.62401">
        <ele>82</ele>
        <time>2016-10-13T13:21:18Z</time>
      </trkpt>
      <trkpt lat="48.44161" lon="2.62011">
        <ele>82</ele>
        <time>2016-10-13T13:22:19Z</time>
      </trkpt>
      <trkpt lat="48.44172" lon="2.61975">
        <ele>82</ele>
        <time>2016-10-13T13:22:24Z</time>
      </trkpt>
      <trkpt lat="48.44178" lon="2.61922">
        <ele>82</ele>
        <time>2016-10-13T13:22:32Z</time>
      </trkpt>
      <trkpt lat="48.44236" lon="2.61574">
        <ele>82.010193</ele>
        <time>2016-10-13T13:23:22Z</time>
      </trkpt>
      <trkpt lat="48.44257" lon="2.61412">
        <ele>81.615685</ele>
        <time>2016-10-13T13:23:45Z</time>
      </trkpt>
      <trkpt lat="48.44302" lon="2.6117">
        <ele>83</ele>
        <time>2016-10-13T13:25:21Z</time>
      </trkpt>
    </trkseg>
  </trk>
</gpx>